<?xml version="1.0" encoding="UTF-8" standalone="no" ?>
<gpx xmlns="http://www.topografix.com/GPX/1/1" xmlns:xsi="http://www.w3.org/2001/XMLSchema-instance" xsi:schemaLocation="http://www.topografix.com/GPX/1/1 http://www.topografix.com/GPX/1/1/gpx.xsd" version="1.1" creator="VisuGPX - https://www.visugpx.com">
  <metadata>
    <name>83-V-Entrecasteaux</name>
    <desc><![CDATA[83-V-Entrecasteaux : le Defens de Valperonne]]></desc>
  </metadata>
  <trk>
    <name><![CDATA[2018-02-23-V-entrecasteaux]]></name>
    <trkseg>
      <trkpt lat="43.51505" lon="6.24151">
        <ele>164.8</ele>
        <time>2018-02-23T12:56:46Z</time>
      </trkpt>
      <trkpt lat="43.51504" lon="6.24151">
        <ele>164.8</ele>
        <time>2018-02-23T12:56:47Z</time>
      </trkpt>
      <trkpt lat="43.51514" lon="6.24152">
        <ele>164.9</ele>
        <time>2018-02-23T12:58:33Z</time>
      </trkpt>
      <trkpt lat="43.51507" lon="6.24162">
        <ele>164.9</ele>
        <time>2018-02-23T12:59:40Z</time>
      </trkpt>
      <trkpt lat="43.51507" lon="6.24174">
        <ele>165.3</ele>
        <time>2018-02-23T13:00:52Z</time>
      </trkpt>
      <trkpt lat="43.515" lon="6.24181">
        <ele>165.2</ele>
        <time>2018-02-23T13:01:07Z</time>
      </trkpt>
      <trkpt lat="43.51495" lon="6.24191">
        <ele>165.1</ele>
        <time>2018-02-23T13:01:21Z</time>
      </trkpt>
      <trkpt lat="43.51489" lon="6.24201">
        <ele>165.5</ele>
        <time>2018-02-23T13:01:34Z</time>
      </trkpt>
      <trkpt lat="43.51493" lon="6.24213">
        <ele>166</ele>
        <time>2018-02-23T13:01:43Z</time>
      </trkpt>
      <trkpt lat="43.51496" lon="6.24224">
        <ele>166.5</ele>
        <time>2018-02-23T13:01:50Z</time>
      </trkpt>
      <trkpt lat="43.515" lon="6.24237">
        <ele>166.9</ele>
        <time>2018-02-23T13:01:58Z</time>
      </trkpt>
      <trkpt lat="43.51495" lon="6.24248">
        <ele>168</ele>
        <time>2018-02-23T13:02:18Z</time>
      </trkpt>
      <trkpt lat="43.51487" lon="6.24254">
        <ele>168.3</ele>
        <time>2018-02-23T13:02:40Z</time>
      </trkpt>
      <trkpt lat="43.51483" lon="6.24266">
        <ele>168.5</ele>
        <time>2018-02-23T13:03:26Z</time>
      </trkpt>
      <trkpt lat="43.51487" lon="6.24277">
        <ele>168.5</ele>
        <time>2018-02-23T13:04:12Z</time>
      </trkpt>
      <trkpt lat="43.51486" lon="6.2429">
        <ele>168.7</ele>
        <time>2018-02-23T13:04:22Z</time>
      </trkpt>
      <trkpt lat="43.51487" lon="6.24303">
        <ele>168.8</ele>
        <time>2018-02-23T13:04:32Z</time>
      </trkpt>
      <trkpt lat="43.51492" lon="6.24313">
        <ele>168.8</ele>
        <time>2018-02-23T13:04:46Z</time>
      </trkpt>
      <trkpt lat="43.515" lon="6.24321">
        <ele>169.4</ele>
        <time>2018-02-23T13:05:07Z</time>
      </trkpt>
      <trkpt lat="43.51503" lon="6.24333">
        <ele>170.4</ele>
        <time>2018-02-23T13:05:18Z</time>
      </trkpt>
      <trkpt lat="43.51498" lon="6.24344">
        <ele>171.2</ele>
        <time>2018-02-23T13:05:26Z</time>
      </trkpt>
      <trkpt lat="43.51491" lon="6.24353">
        <ele>171.7</ele>
        <time>2018-02-23T13:05:33Z</time>
      </trkpt>
      <trkpt lat="43.51485" lon="6.24363">
        <ele>172.1</ele>
        <time>2018-02-23T13:05:43Z</time>
      </trkpt>
      <trkpt lat="43.51472" lon="6.24369">
        <ele>171.5</ele>
        <time>2018-02-23T13:05:56Z</time>
      </trkpt>
      <trkpt lat="43.51479" lon="6.24378">
        <ele>170.4</ele>
        <time>2018-02-23T13:06:11Z</time>
      </trkpt>
      <trkpt lat="43.51483" lon="6.2439">
        <ele>170.3</ele>
        <time>2018-02-23T13:06:20Z</time>
      </trkpt>
      <trkpt lat="43.51488" lon="6.244">
        <ele>170.9</ele>
        <time>2018-02-23T13:06:46Z</time>
      </trkpt>
      <trkpt lat="43.51495" lon="6.24409">
        <ele>171.5</ele>
        <time>2018-02-23T13:06:58Z</time>
      </trkpt>
      <trkpt lat="43.51502" lon="6.24416">
        <ele>172.2</ele>
        <time>2018-02-23T13:07:08Z</time>
      </trkpt>
      <trkpt lat="43.51506" lon="6.24428">
        <ele>172.7</ele>
        <time>2018-02-23T13:07:16Z</time>
      </trkpt>
      <trkpt lat="43.51514" lon="6.24438">
        <ele>173.1</ele>
        <time>2018-02-23T13:07:25Z</time>
      </trkpt>
      <trkpt lat="43.51523" lon="6.24442">
        <ele>173.2</ele>
        <time>2018-02-23T13:07:31Z</time>
      </trkpt>
      <trkpt lat="43.5153" lon="6.2442">
        <ele>173</ele>
        <time>2018-02-23T13:07:57Z</time>
      </trkpt>
      <trkpt lat="43.51541" lon="6.24411">
        <ele>173</ele>
        <time>2018-02-23T13:08:09Z</time>
      </trkpt>
      <trkpt lat="43.5155" lon="6.24413">
        <ele>172.8</ele>
        <time>2018-02-23T13:08:49Z</time>
      </trkpt>
      <trkpt lat="43.51558" lon="6.24408">
        <ele>171.6</ele>
        <time>2018-02-23T13:09:03Z</time>
      </trkpt>
      <trkpt lat="43.51558" lon="6.24394">
        <ele>170.8</ele>
        <time>2018-02-23T13:09:10Z</time>
      </trkpt>
      <trkpt lat="43.51557" lon="6.24378">
        <ele>169.7</ele>
        <time>2018-02-23T13:09:17Z</time>
      </trkpt>
      <trkpt lat="43.51554" lon="6.24366">
        <ele>169.2</ele>
        <time>2018-02-23T13:09:21Z</time>
      </trkpt>
      <trkpt lat="43.51558" lon="6.24378">
        <ele>163.6</ele>
        <time>2018-02-23T13:09:52Z</time>
      </trkpt>
      <trkpt lat="43.5156" lon="6.2439">
        <ele>162.4</ele>
        <time>2018-02-23T13:10:00Z</time>
      </trkpt>
      <trkpt lat="43.51556" lon="6.24402">
        <ele>161</ele>
        <time>2018-02-23T13:10:10Z</time>
      </trkpt>
      <trkpt lat="43.51555" lon="6.24415">
        <ele>160.3</ele>
        <time>2018-02-23T13:10:22Z</time>
      </trkpt>
      <trkpt lat="43.5155" lon="6.24426">
        <ele>160.1</ele>
        <time>2018-02-23T13:10:38Z</time>
      </trkpt>
      <trkpt lat="43.51556" lon="6.24437">
        <ele>160</ele>
        <time>2018-02-23T13:10:46Z</time>
      </trkpt>
      <trkpt lat="43.51562" lon="6.24446">
        <ele>160</ele>
        <time>2018-02-23T13:10:54Z</time>
      </trkpt>
      <trkpt lat="43.51565" lon="6.24459">
        <ele>159.7</ele>
        <time>2018-02-23T13:11:02Z</time>
      </trkpt>
      <trkpt lat="43.51559" lon="6.24469">
        <ele>160</ele>
        <time>2018-02-23T13:11:11Z</time>
      </trkpt>
      <trkpt lat="43.5155" lon="6.24474">
        <ele>160.8</ele>
        <time>2018-02-23T13:11:21Z</time>
      </trkpt>
      <trkpt lat="43.51541" lon="6.2448">
        <ele>161.1</ele>
        <time>2018-02-23T13:11:27Z</time>
      </trkpt>
      <trkpt lat="43.5153" lon="6.24483">
        <ele>161.5</ele>
        <time>2018-02-23T13:11:32Z</time>
      </trkpt>
      <trkpt lat="43.51521" lon="6.24485">
        <ele>162</ele>
        <time>2018-02-23T13:11:42Z</time>
      </trkpt>
      <trkpt lat="43.51512" lon="6.24481">
        <ele>162.2</ele>
        <time>2018-02-23T13:11:55Z</time>
      </trkpt>
      <trkpt lat="43.51502" lon="6.24477">
        <ele>161.8</ele>
        <time>2018-02-23T13:12:05Z</time>
      </trkpt>
      <trkpt lat="43.51492" lon="6.24477">
        <ele>161.1</ele>
        <time>2018-02-23T13:12:16Z</time>
      </trkpt>
      <trkpt lat="43.51484" lon="6.24468">
        <ele>160.9</ele>
        <time>2018-02-23T13:12:21Z</time>
      </trkpt>
      <trkpt lat="43.51476" lon="6.24463">
        <ele>160.3</ele>
        <time>2018-02-23T13:12:29Z</time>
      </trkpt>
      <trkpt lat="43.5147" lon="6.24452">
        <ele>160</ele>
        <time>2018-02-23T13:12:40Z</time>
      </trkpt>
      <trkpt lat="43.51465" lon="6.24441">
        <ele>159.9</ele>
        <time>2018-02-23T13:12:50Z</time>
      </trkpt>
      <trkpt lat="43.51462" lon="6.24429">
        <ele>159.4</ele>
        <time>2018-02-23T13:13:04Z</time>
      </trkpt>
      <trkpt lat="43.51456" lon="6.24419">
        <ele>157.9</ele>
        <time>2018-02-23T13:13:46Z</time>
      </trkpt>
      <trkpt lat="43.51446" lon="6.24425">
        <ele>156.7</ele>
        <time>2018-02-23T13:13:55Z</time>
      </trkpt>
      <trkpt lat="43.51444" lon="6.24438">
        <ele>155</ele>
        <time>2018-02-23T13:14:12Z</time>
      </trkpt>
      <trkpt lat="43.51435" lon="6.24435">
        <ele>152.9</ele>
        <time>2018-02-23T13:14:35Z</time>
      </trkpt>
      <trkpt lat="43.5143" lon="6.24422">
        <ele>152.5</ele>
        <time>2018-02-23T13:14:43Z</time>
      </trkpt>
      <trkpt lat="43.51429" lon="6.2441">
        <ele>151.9</ele>
        <time>2018-02-23T13:15:14Z</time>
      </trkpt>
      <trkpt lat="43.51438" lon="6.24416">
        <ele>152.2</ele>
        <time>2018-02-23T13:16:23Z</time>
      </trkpt>
      <trkpt lat="43.51429" lon="6.24418">
        <ele>153.3</ele>
        <time>2018-02-23T13:17:31Z</time>
      </trkpt>
      <trkpt lat="43.5142" lon="6.24426">
        <ele>154</ele>
        <time>2018-02-23T13:17:44Z</time>
      </trkpt>
      <trkpt lat="43.51442" lon="6.24426">
        <ele>155</ele>
        <time>2018-02-23T13:17:54Z</time>
      </trkpt>
      <trkpt lat="43.51454" lon="6.24419">
        <ele>156.7</ele>
        <time>2018-02-23T13:17:59Z</time>
      </trkpt>
      <trkpt lat="43.51458" lon="6.24409">
        <ele>159.8</ele>
        <time>2018-02-23T13:19:23Z</time>
      </trkpt>
      <trkpt lat="43.51452" lon="6.24399">
        <ele>161.1</ele>
        <time>2018-02-23T13:19:53Z</time>
      </trkpt>
      <trkpt lat="43.5145" lon="6.24386">
        <ele>161.7</ele>
        <time>2018-02-23T13:20:06Z</time>
      </trkpt>
      <trkpt lat="43.51453" lon="6.24374">
        <ele>162</ele>
        <time>2018-02-23T13:20:13Z</time>
      </trkpt>
      <trkpt lat="43.51446" lon="6.24364">
        <ele>162.8</ele>
        <time>2018-02-23T13:20:25Z</time>
      </trkpt>
      <trkpt lat="43.51438" lon="6.24355">
        <ele>163.5</ele>
        <time>2018-02-23T13:20:31Z</time>
      </trkpt>
      <trkpt lat="43.51436" lon="6.24342">
        <ele>165.1</ele>
        <time>2018-02-23T13:20:53Z</time>
      </trkpt>
      <trkpt lat="43.51428" lon="6.24334">
        <ele>165.4</ele>
        <time>2018-02-23T13:21:05Z</time>
      </trkpt>
      <trkpt lat="43.51422" lon="6.24324">
        <ele>165.6</ele>
        <time>2018-02-23T13:21:13Z</time>
      </trkpt>
      <trkpt lat="43.51417" lon="6.24314">
        <ele>165.5</ele>
        <time>2018-02-23T13:21:24Z</time>
      </trkpt>
      <trkpt lat="43.51411" lon="6.24304">
        <ele>165.4</ele>
        <time>2018-02-23T13:21:34Z</time>
      </trkpt>
      <trkpt lat="43.51403" lon="6.24295">
        <ele>165.4</ele>
        <time>2018-02-23T13:21:42Z</time>
      </trkpt>
      <trkpt lat="43.51395" lon="6.2429">
        <ele>165.1</ele>
        <time>2018-02-23T13:21:52Z</time>
      </trkpt>
      <trkpt lat="43.5139" lon="6.24278">
        <ele>164.9</ele>
        <time>2018-02-23T13:22:01Z</time>
      </trkpt>
      <trkpt lat="43.51385" lon="6.24265">
        <ele>164.7</ele>
        <time>2018-02-23T13:22:07Z</time>
      </trkpt>
      <trkpt lat="43.51378" lon="6.24255">
        <ele>164.3</ele>
        <time>2018-02-23T13:22:14Z</time>
      </trkpt>
      <trkpt lat="43.51369" lon="6.24254">
        <ele>164</ele>
        <time>2018-02-23T13:22:31Z</time>
      </trkpt>
      <trkpt lat="43.51363" lon="6.24244">
        <ele>163.6</ele>
        <time>2018-02-23T13:23:05Z</time>
      </trkpt>
      <trkpt lat="43.51354" lon="6.24238">
        <ele>163.2</ele>
        <time>2018-02-23T13:23:13Z</time>
      </trkpt>
      <trkpt lat="43.51344" lon="6.24237">
        <ele>163</ele>
        <time>2018-02-23T13:23:18Z</time>
      </trkpt>
      <trkpt lat="43.51335" lon="6.24231">
        <ele>162.9</ele>
        <time>2018-02-23T13:23:23Z</time>
      </trkpt>
      <trkpt lat="43.51326" lon="6.24228">
        <ele>162.7</ele>
        <time>2018-02-23T13:23:34Z</time>
      </trkpt>
      <trkpt lat="43.51317" lon="6.24227">
        <ele>162.6</ele>
        <time>2018-02-23T13:23:44Z</time>
      </trkpt>
      <trkpt lat="43.51313" lon="6.24216">
        <ele>162.7</ele>
        <time>2018-02-23T13:24:05Z</time>
      </trkpt>
      <trkpt lat="43.51302" lon="6.2421">
        <ele>162.6</ele>
        <time>2018-02-23T13:24:12Z</time>
      </trkpt>
      <trkpt lat="43.51292" lon="6.24207">
        <ele>162.5</ele>
        <time>2018-02-23T13:24:18Z</time>
      </trkpt>
      <trkpt lat="43.51282" lon="6.24206">
        <ele>162.4</ele>
        <time>2018-02-23T13:24:22Z</time>
      </trkpt>
      <trkpt lat="43.51272" lon="6.24204">
        <ele>162.4</ele>
        <time>2018-02-23T13:24:26Z</time>
      </trkpt>
      <trkpt lat="43.51262" lon="6.24203">
        <ele>162.4</ele>
        <time>2018-02-23T13:24:34Z</time>
      </trkpt>
      <trkpt lat="43.51253" lon="6.24205">
        <ele>162.4</ele>
        <time>2018-02-23T13:24:42Z</time>
      </trkpt>
      <trkpt lat="43.51244" lon="6.24205">
        <ele>162.6</ele>
        <time>2018-02-23T13:24:49Z</time>
      </trkpt>
      <trkpt lat="43.51235" lon="6.242">
        <ele>162.6</ele>
        <time>2018-02-23T13:24:57Z</time>
      </trkpt>
      <trkpt lat="43.51226" lon="6.24201">
        <ele>162.7</ele>
        <time>2018-02-23T13:25:07Z</time>
      </trkpt>
      <trkpt lat="43.51219" lon="6.24193">
        <ele>163</ele>
        <time>2018-02-23T13:25:17Z</time>
      </trkpt>
      <trkpt lat="43.5121" lon="6.24187">
        <ele>163.2</ele>
        <time>2018-02-23T13:25:26Z</time>
      </trkpt>
      <trkpt lat="43.51201" lon="6.24184">
        <ele>163.4</ele>
        <time>2018-02-23T13:25:34Z</time>
      </trkpt>
      <trkpt lat="43.51192" lon="6.24183">
        <ele>163.8</ele>
        <time>2018-02-23T13:25:44Z</time>
      </trkpt>
      <trkpt lat="43.51183" lon="6.24186">
        <ele>164.3</ele>
        <time>2018-02-23T13:25:54Z</time>
      </trkpt>
      <trkpt lat="43.51174" lon="6.24189">
        <ele>164.9</ele>
        <time>2018-02-23T13:26:04Z</time>
      </trkpt>
      <trkpt lat="43.51165" lon="6.24183">
        <ele>165.4</ele>
        <time>2018-02-23T13:26:13Z</time>
      </trkpt>
      <trkpt lat="43.51155" lon="6.24178">
        <ele>165.6</ele>
        <time>2018-02-23T13:26:20Z</time>
      </trkpt>
      <trkpt lat="43.51148" lon="6.24171">
        <ele>165.7</ele>
        <time>2018-02-23T13:26:26Z</time>
      </trkpt>
      <trkpt lat="43.51139" lon="6.24164">
        <ele>165.8</ele>
        <time>2018-02-23T13:26:33Z</time>
      </trkpt>
      <trkpt lat="43.5113" lon="6.24159">
        <ele>166</ele>
        <time>2018-02-23T13:26:41Z</time>
      </trkpt>
      <trkpt lat="43.51121" lon="6.24152">
        <ele>166.2</ele>
        <time>2018-02-23T13:26:48Z</time>
      </trkpt>
      <trkpt lat="43.51115" lon="6.24143">
        <ele>166.1</ele>
        <time>2018-02-23T13:26:55Z</time>
      </trkpt>
      <trkpt lat="43.51111" lon="6.24132">
        <ele>166</ele>
        <time>2018-02-23T13:27:03Z</time>
      </trkpt>
      <trkpt lat="43.51106" lon="6.2412">
        <ele>166.1</ele>
        <time>2018-02-23T13:27:13Z</time>
      </trkpt>
      <trkpt lat="43.51098" lon="6.24116">
        <ele>165.9</ele>
        <time>2018-02-23T13:27:20Z</time>
      </trkpt>
      <trkpt lat="43.51089" lon="6.24122">
        <ele>165.3</ele>
        <time>2018-02-23T13:27:31Z</time>
      </trkpt>
      <trkpt lat="43.51081" lon="6.2413">
        <ele>164.5</ele>
        <time>2018-02-23T13:27:40Z</time>
      </trkpt>
      <trkpt lat="43.51072" lon="6.24136">
        <ele>163.8</ele>
        <time>2018-02-23T13:27:48Z</time>
      </trkpt>
      <trkpt lat="43.51064" lon="6.24142">
        <ele>163.1</ele>
        <time>2018-02-23T13:27:57Z</time>
      </trkpt>
      <trkpt lat="43.51055" lon="6.24148">
        <ele>162.4</ele>
        <time>2018-02-23T13:28:05Z</time>
      </trkpt>
      <trkpt lat="43.51047" lon="6.24155">
        <ele>161.7</ele>
        <time>2018-02-23T13:28:14Z</time>
      </trkpt>
      <trkpt lat="43.51047" lon="6.24168">
        <ele>160.6</ele>
        <time>2018-02-23T13:28:27Z</time>
      </trkpt>
      <trkpt lat="43.51056" lon="6.24172">
        <ele>160.1</ele>
        <time>2018-02-23T13:28:36Z</time>
      </trkpt>
      <trkpt lat="43.51065" lon="6.24175">
        <ele>159</ele>
        <time>2018-02-23T13:28:45Z</time>
      </trkpt>
      <trkpt lat="43.51075" lon="6.24177">
        <ele>158.8</ele>
        <time>2018-02-23T13:28:55Z</time>
      </trkpt>
      <trkpt lat="43.51075" lon="6.2419">
        <ele>158.7</ele>
        <time>2018-02-23T13:29:11Z</time>
      </trkpt>
      <trkpt lat="43.51078" lon="6.24202">
        <ele>158.2</ele>
        <time>2018-02-23T13:29:49Z</time>
      </trkpt>
      <trkpt lat="43.51076" lon="6.24215">
        <ele>157.7</ele>
        <time>2018-02-23T13:30:06Z</time>
      </trkpt>
      <trkpt lat="43.51079" lon="6.24227">
        <ele>157.3</ele>
        <time>2018-02-23T13:30:33Z</time>
      </trkpt>
      <trkpt lat="43.51088" lon="6.24225">
        <ele>155.8</ele>
        <time>2018-02-23T13:31:02Z</time>
      </trkpt>
      <trkpt lat="43.51094" lon="6.24215">
        <ele>153.5</ele>
        <time>2018-02-23T13:31:21Z</time>
      </trkpt>
      <trkpt lat="43.51102" lon="6.24208">
        <ele>151.2</ele>
        <time>2018-02-23T13:31:51Z</time>
      </trkpt>
      <trkpt lat="43.51105" lon="6.24196">
        <ele>150.2</ele>
        <time>2018-02-23T13:32:22Z</time>
      </trkpt>
      <trkpt lat="43.51108" lon="6.24185">
        <ele>149.8</ele>
        <time>2018-02-23T13:33:26Z</time>
      </trkpt>
      <trkpt lat="43.51116" lon="6.24177">
        <ele>150.1</ele>
        <time>2018-02-23T13:34:07Z</time>
      </trkpt>
      <trkpt lat="43.51125" lon="6.2418">
        <ele>150.5</ele>
        <time>2018-02-23T13:34:27Z</time>
      </trkpt>
      <trkpt lat="43.51127" lon="6.24192">
        <ele>151.6</ele>
        <time>2018-02-23T13:34:55Z</time>
      </trkpt>
      <trkpt lat="43.51135" lon="6.24186">
        <ele>151.4</ele>
        <time>2018-02-23T13:35:16Z</time>
      </trkpt>
      <trkpt lat="43.51145" lon="6.24184">
        <ele>151.3</ele>
        <time>2018-02-23T13:35:28Z</time>
      </trkpt>
      <trkpt lat="43.51155" lon="6.24185">
        <ele>151.7</ele>
        <time>2018-02-23T13:35:38Z</time>
      </trkpt>
      <trkpt lat="43.51164" lon="6.24182">
        <ele>152.1</ele>
        <time>2018-02-23T13:35:48Z</time>
      </trkpt>
      <trkpt lat="43.51173" lon="6.24183">
        <ele>152.3</ele>
        <time>2018-02-23T13:35:57Z</time>
      </trkpt>
      <trkpt lat="43.51183" lon="6.24184">
        <ele>152</ele>
        <time>2018-02-23T13:36:04Z</time>
      </trkpt>
      <trkpt lat="43.51192" lon="6.24187">
        <ele>151.8</ele>
        <time>2018-02-23T13:36:12Z</time>
      </trkpt>
      <trkpt lat="43.51201" lon="6.2419">
        <ele>151.2</ele>
        <time>2018-02-23T13:36:22Z</time>
      </trkpt>
      <trkpt lat="43.5121" lon="6.24196">
        <ele>151.2</ele>
        <time>2018-02-23T13:36:31Z</time>
      </trkpt>
      <trkpt lat="43.51219" lon="6.24202">
        <ele>151.4</ele>
        <time>2018-02-23T13:36:39Z</time>
      </trkpt>
      <trkpt lat="43.51227" lon="6.24208">
        <ele>151.3</ele>
        <time>2018-02-23T13:36:46Z</time>
      </trkpt>
      <trkpt lat="43.51236" lon="6.24214">
        <ele>151</ele>
        <time>2018-02-23T13:36:56Z</time>
      </trkpt>
      <trkpt lat="43.51245" lon="6.24217">
        <ele>151.1</ele>
        <time>2018-02-23T13:37:06Z</time>
      </trkpt>
      <trkpt lat="43.51254" lon="6.24219">
        <ele>151.1</ele>
        <time>2018-02-23T13:37:13Z</time>
      </trkpt>
      <trkpt lat="43.51264" lon="6.24219">
        <ele>151.1</ele>
        <time>2018-02-23T13:37:23Z</time>
      </trkpt>
      <trkpt lat="43.51273" lon="6.24221">
        <ele>151.1</ele>
        <time>2018-02-23T13:37:34Z</time>
      </trkpt>
      <trkpt lat="43.51282" lon="6.24222">
        <ele>151.2</ele>
        <time>2018-02-23T13:37:50Z</time>
      </trkpt>
      <trkpt lat="43.51291" lon="6.24226">
        <ele>151.2</ele>
        <time>2018-02-23T13:37:58Z</time>
      </trkpt>
      <trkpt lat="43.513" lon="6.24232">
        <ele>150.9</ele>
        <time>2018-02-23T13:38:05Z</time>
      </trkpt>
      <trkpt lat="43.51308" lon="6.24238">
        <ele>150.9</ele>
        <time>2018-02-23T13:38:12Z</time>
      </trkpt>
      <trkpt lat="43.51317" lon="6.24243">
        <ele>151</ele>
        <time>2018-02-23T13:38:23Z</time>
      </trkpt>
      <trkpt lat="43.51323" lon="6.24253">
        <ele>151</ele>
        <time>2018-02-23T13:38:34Z</time>
      </trkpt>
      <trkpt lat="43.51327" lon="6.24264">
        <ele>151</ele>
        <time>2018-02-23T13:38:57Z</time>
      </trkpt>
      <trkpt lat="43.51331" lon="6.24276">
        <ele>151.2</ele>
        <time>2018-02-23T13:39:26Z</time>
      </trkpt>
      <trkpt lat="43.51338" lon="6.24283">
        <ele>151.4</ele>
        <time>2018-02-23T13:39:53Z</time>
      </trkpt>
      <trkpt lat="43.51345" lon="6.24292">
        <ele>151.6</ele>
        <time>2018-02-23T13:40:28Z</time>
      </trkpt>
      <trkpt lat="43.51352" lon="6.24301">
        <ele>151.8</ele>
        <time>2018-02-23T13:40:53Z</time>
      </trkpt>
      <trkpt lat="43.51357" lon="6.24311">
        <ele>152</ele>
        <time>2018-02-23T13:41:07Z</time>
      </trkpt>
      <trkpt lat="43.51363" lon="6.24322">
        <ele>152.1</ele>
        <time>2018-02-23T13:41:19Z</time>
      </trkpt>
      <trkpt lat="43.51369" lon="6.24332">
        <ele>152.5</ele>
        <time>2018-02-23T13:41:30Z</time>
      </trkpt>
      <trkpt lat="43.51376" lon="6.24342">
        <ele>152.6</ele>
        <time>2018-02-23T13:41:40Z</time>
      </trkpt>
      <trkpt lat="43.51383" lon="6.2435">
        <ele>152.8</ele>
        <time>2018-02-23T13:41:53Z</time>
      </trkpt>
      <trkpt lat="43.5139" lon="6.2436">
        <ele>152.6</ele>
        <time>2018-02-23T13:42:07Z</time>
      </trkpt>
      <trkpt lat="43.51395" lon="6.2437">
        <ele>152.3</ele>
        <time>2018-02-23T13:42:22Z</time>
      </trkpt>
      <trkpt lat="43.51404" lon="6.24377">
        <ele>152.2</ele>
        <time>2018-02-23T13:42:34Z</time>
      </trkpt>
      <trkpt lat="43.51411" lon="6.24387">
        <ele>152.4</ele>
        <time>2018-02-23T13:42:43Z</time>
      </trkpt>
      <trkpt lat="43.51416" lon="6.24398">
        <ele>152.4</ele>
        <time>2018-02-23T13:42:50Z</time>
      </trkpt>
      <trkpt lat="43.51423" lon="6.24408">
        <ele>152.3</ele>
        <time>2018-02-23T13:42:58Z</time>
      </trkpt>
      <trkpt lat="43.51431" lon="6.24418">
        <ele>152.4</ele>
        <time>2018-02-23T13:43:08Z</time>
      </trkpt>
      <trkpt lat="43.51438" lon="6.24427">
        <ele>152.3</ele>
        <time>2018-02-23T13:43:19Z</time>
      </trkpt>
      <trkpt lat="43.51445" lon="6.24435">
        <ele>152.4</ele>
        <time>2018-02-23T13:43:31Z</time>
      </trkpt>
      <trkpt lat="43.51451" lon="6.24445">
        <ele>152.4</ele>
        <time>2018-02-23T13:43:40Z</time>
      </trkpt>
      <trkpt lat="43.51458" lon="6.24453">
        <ele>152.8</ele>
        <time>2018-02-23T13:43:48Z</time>
      </trkpt>
      <trkpt lat="43.51465" lon="6.24462">
        <ele>152.8</ele>
        <time>2018-02-23T13:43:57Z</time>
      </trkpt>
      <trkpt lat="43.51473" lon="6.2447">
        <ele>152.4</ele>
        <time>2018-02-23T13:44:17Z</time>
      </trkpt>
      <trkpt lat="43.51481" lon="6.24477">
        <ele>152.5</ele>
        <time>2018-02-23T13:44:31Z</time>
      </trkpt>
      <trkpt lat="43.51488" lon="6.24484">
        <ele>153.1</ele>
        <time>2018-02-23T13:44:50Z</time>
      </trkpt>
      <trkpt lat="43.51496" lon="6.24492">
        <ele>152.8</ele>
        <time>2018-02-23T13:45:06Z</time>
      </trkpt>
      <trkpt lat="43.51505" lon="6.24496">
        <ele>153.3</ele>
        <time>2018-02-23T13:45:26Z</time>
      </trkpt>
      <trkpt lat="43.51513" lon="6.245">
        <ele>153.6</ele>
        <time>2018-02-23T13:45:39Z</time>
      </trkpt>
      <trkpt lat="43.51523" lon="6.24501">
        <ele>153.7</ele>
        <time>2018-02-23T13:45:56Z</time>
      </trkpt>
      <trkpt lat="43.51532" lon="6.24502">
        <ele>153.7</ele>
        <time>2018-02-23T13:46:16Z</time>
      </trkpt>
      <trkpt lat="43.51541" lon="6.24502">
        <ele>153.2</ele>
        <time>2018-02-23T13:46:37Z</time>
      </trkpt>
      <trkpt lat="43.51549" lon="6.24493">
        <ele>153.6</ele>
        <time>2018-02-23T13:47:11Z</time>
      </trkpt>
      <trkpt lat="43.51557" lon="6.24487">
        <ele>153.9</ele>
        <time>2018-02-23T13:47:25Z</time>
      </trkpt>
      <trkpt lat="43.51565" lon="6.2448">
        <ele>155.9</ele>
        <time>2018-02-23T13:47:40Z</time>
      </trkpt>
      <trkpt lat="43.51563" lon="6.24468">
        <ele>158.6</ele>
        <time>2018-02-23T13:48:18Z</time>
      </trkpt>
      <trkpt lat="43.51572" lon="6.2447">
        <ele>160.5</ele>
        <time>2018-02-23T13:50:26Z</time>
      </trkpt>
      <trkpt lat="43.51581" lon="6.24472">
        <ele>160.5</ele>
        <time>2018-02-23T13:52:47Z</time>
      </trkpt>
      <trkpt lat="43.5159" lon="6.24471">
        <ele>161.4</ele>
        <time>2018-02-23T13:52:59Z</time>
      </trkpt>
      <trkpt lat="43.51599" lon="6.24471">
        <ele>162.4</ele>
        <time>2018-02-23T13:53:11Z</time>
      </trkpt>
      <trkpt lat="43.51609" lon="6.24473">
        <ele>163.5</ele>
        <time>2018-02-23T13:53:21Z</time>
      </trkpt>
      <trkpt lat="43.51618" lon="6.24475">
        <ele>164.4</ele>
        <time>2018-02-23T13:53:31Z</time>
      </trkpt>
      <trkpt lat="43.51628" lon="6.24478">
        <ele>164.9</ele>
        <time>2018-02-23T13:53:42Z</time>
      </trkpt>
      <trkpt lat="43.51637" lon="6.24479">
        <ele>165.7</ele>
        <time>2018-02-23T13:53:54Z</time>
      </trkpt>
      <trkpt lat="43.51646" lon="6.2448">
        <ele>166.4</ele>
        <time>2018-02-23T13:54:11Z</time>
      </trkpt>
      <trkpt lat="43.51655" lon="6.24483">
        <ele>167.4</ele>
        <time>2018-02-23T13:54:26Z</time>
      </trkpt>
      <trkpt lat="43.51654" lon="6.24496">
        <ele>169.7</ele>
        <time>2018-02-23T13:54:44Z</time>
      </trkpt>
      <trkpt lat="43.51646" lon="6.24503">
        <ele>171.5</ele>
        <time>2018-02-23T13:55:01Z</time>
      </trkpt>
      <trkpt lat="43.51655" lon="6.24506">
        <ele>175.7</ele>
        <time>2018-02-23T13:55:42Z</time>
      </trkpt>
      <trkpt lat="43.51656" lon="6.24519">
        <ele>179.4</ele>
        <time>2018-02-23T13:56:19Z</time>
      </trkpt>
      <trkpt lat="43.51656" lon="6.24531">
        <ele>182</ele>
        <time>2018-02-23T13:56:42Z</time>
      </trkpt>
      <trkpt lat="43.51659" lon="6.24543">
        <ele>185.7</ele>
        <time>2018-02-23T13:57:14Z</time>
      </trkpt>
      <trkpt lat="43.51661" lon="6.24556">
        <ele>187.5</ele>
        <time>2018-02-23T13:57:33Z</time>
      </trkpt>
      <trkpt lat="43.5166" lon="6.24569">
        <ele>188.6</ele>
        <time>2018-02-23T13:57:43Z</time>
      </trkpt>
      <trkpt lat="43.5166" lon="6.24582">
        <ele>189.8</ele>
        <time>2018-02-23T13:57:56Z</time>
      </trkpt>
      <trkpt lat="43.51665" lon="6.24592">
        <ele>192</ele>
        <time>2018-02-23T13:58:13Z</time>
      </trkpt>
      <trkpt lat="43.51672" lon="6.24599">
        <ele>194.4</ele>
        <time>2018-02-23T13:58:32Z</time>
      </trkpt>
      <trkpt lat="43.51679" lon="6.24608">
        <ele>197.1</ele>
        <time>2018-02-23T13:58:52Z</time>
      </trkpt>
      <trkpt lat="43.51687" lon="6.24615">
        <ele>198.5</ele>
        <time>2018-02-23T13:59:04Z</time>
      </trkpt>
      <trkpt lat="43.51693" lon="6.24625">
        <ele>199.3</ele>
        <time>2018-02-23T13:59:15Z</time>
      </trkpt>
      <trkpt lat="43.51696" lon="6.24637">
        <ele>200.1</ele>
        <time>2018-02-23T13:59:25Z</time>
      </trkpt>
      <trkpt lat="43.51696" lon="6.24649">
        <ele>201.4</ele>
        <time>2018-02-23T13:59:38Z</time>
      </trkpt>
      <trkpt lat="43.51699" lon="6.24661">
        <ele>202.3</ele>
        <time>2018-02-23T13:59:48Z</time>
      </trkpt>
      <trkpt lat="43.517" lon="6.24673">
        <ele>203.6</ele>
        <time>2018-02-23T14:00:06Z</time>
      </trkpt>
      <trkpt lat="43.51706" lon="6.24683">
        <ele>204.6</ele>
        <time>2018-02-23T14:00:29Z</time>
      </trkpt>
      <trkpt lat="43.51715" lon="6.24685">
        <ele>205.2</ele>
        <time>2018-02-23T14:00:48Z</time>
      </trkpt>
      <trkpt lat="43.51724" lon="6.24687">
        <ele>206.1</ele>
        <time>2018-02-23T14:01:03Z</time>
      </trkpt>
      <trkpt lat="43.51733" lon="6.24692">
        <ele>207</ele>
        <time>2018-02-23T14:01:17Z</time>
      </trkpt>
      <trkpt lat="43.51741" lon="6.24695">
        <ele>207.6</ele>
        <time>2018-02-23T14:01:29Z</time>
      </trkpt>
      <trkpt lat="43.5175" lon="6.24697">
        <ele>208.8</ele>
        <time>2018-02-23T14:01:45Z</time>
      </trkpt>
      <trkpt lat="43.51759" lon="6.24698">
        <ele>209.8</ele>
        <time>2018-02-23T14:01:57Z</time>
      </trkpt>
      <trkpt lat="43.51768" lon="6.24701">
        <ele>211.2</ele>
        <time>2018-02-23T14:02:11Z</time>
      </trkpt>
      <trkpt lat="43.51778" lon="6.24702">
        <ele>212.7</ele>
        <time>2018-02-23T14:02:24Z</time>
      </trkpt>
      <trkpt lat="43.51787" lon="6.24704">
        <ele>214.6</ele>
        <time>2018-02-23T14:02:38Z</time>
      </trkpt>
      <trkpt lat="43.51794" lon="6.24711">
        <ele>218.1</ele>
        <time>2018-02-23T14:03:13Z</time>
      </trkpt>
      <trkpt lat="43.51803" lon="6.24706">
        <ele>218.8</ele>
        <time>2018-02-23T14:03:49Z</time>
      </trkpt>
      <trkpt lat="43.51809" lon="6.24716">
        <ele>221.1</ele>
        <time>2018-02-23T14:04:48Z</time>
      </trkpt>
      <trkpt lat="43.51815" lon="6.24726">
        <ele>223.6</ele>
        <time>2018-02-23T14:05:11Z</time>
      </trkpt>
      <trkpt lat="43.51821" lon="6.24735">
        <ele>225.2</ele>
        <time>2018-02-23T14:05:26Z</time>
      </trkpt>
      <trkpt lat="43.51829" lon="6.24742">
        <ele>227.9</ele>
        <time>2018-02-23T14:05:49Z</time>
      </trkpt>
      <trkpt lat="43.51837" lon="6.24749">
        <ele>230.8</ele>
        <time>2018-02-23T14:06:12Z</time>
      </trkpt>
      <trkpt lat="43.51844" lon="6.24758">
        <ele>231.8</ele>
        <time>2018-02-23T14:06:21Z</time>
      </trkpt>
      <trkpt lat="43.5185" lon="6.24767">
        <ele>233.1</ele>
        <time>2018-02-23T14:06:33Z</time>
      </trkpt>
      <trkpt lat="43.51854" lon="6.24778">
        <ele>235</ele>
        <time>2018-02-23T14:06:49Z</time>
      </trkpt>
      <trkpt lat="43.51857" lon="6.2479">
        <ele>236.3</ele>
        <time>2018-02-23T14:07:03Z</time>
      </trkpt>
      <trkpt lat="43.51861" lon="6.24801">
        <ele>238.5</ele>
        <time>2018-02-23T14:07:17Z</time>
      </trkpt>
      <trkpt lat="43.51863" lon="6.24814">
        <ele>240</ele>
        <time>2018-02-23T14:07:31Z</time>
      </trkpt>
      <trkpt lat="43.51867" lon="6.24826">
        <ele>241.7</ele>
        <time>2018-02-23T14:07:50Z</time>
      </trkpt>
      <trkpt lat="43.51873" lon="6.24835">
        <ele>243.3</ele>
        <time>2018-02-23T14:08:08Z</time>
      </trkpt>
      <trkpt lat="43.51877" lon="6.24848">
        <ele>244.4</ele>
        <time>2018-02-23T14:08:24Z</time>
      </trkpt>
      <trkpt lat="43.5188" lon="6.2486">
        <ele>245</ele>
        <time>2018-02-23T14:08:36Z</time>
      </trkpt>
      <trkpt lat="43.51885" lon="6.24871">
        <ele>246.2</ele>
        <time>2018-02-23T14:08:54Z</time>
      </trkpt>
      <trkpt lat="43.51893" lon="6.24878">
        <ele>248.1</ele>
        <time>2018-02-23T14:09:15Z</time>
      </trkpt>
      <trkpt lat="43.51898" lon="6.24889">
        <ele>250</ele>
        <time>2018-02-23T14:09:33Z</time>
      </trkpt>
      <trkpt lat="43.51905" lon="6.24896">
        <ele>250.8</ele>
        <time>2018-02-23T14:09:43Z</time>
      </trkpt>
      <trkpt lat="43.51912" lon="6.24905">
        <ele>251.9</ele>
        <time>2018-02-23T14:09:54Z</time>
      </trkpt>
      <trkpt lat="43.5192" lon="6.24912">
        <ele>253.9</ele>
        <time>2018-02-23T14:10:10Z</time>
      </trkpt>
      <trkpt lat="43.51927" lon="6.24921">
        <ele>256</ele>
        <time>2018-02-23T14:10:31Z</time>
      </trkpt>
      <trkpt lat="43.51934" lon="6.24929">
        <ele>257.7</ele>
        <time>2018-02-23T14:10:48Z</time>
      </trkpt>
      <trkpt lat="43.51943" lon="6.24935">
        <ele>258.2</ele>
        <time>2018-02-23T14:10:56Z</time>
      </trkpt>
      <trkpt lat="43.51952" lon="6.24937">
        <ele>259.6</ele>
        <time>2018-02-23T14:11:09Z</time>
      </trkpt>
      <trkpt lat="43.51961" lon="6.2494">
        <ele>261.2</ele>
        <time>2018-02-23T14:11:24Z</time>
      </trkpt>
      <trkpt lat="43.5197" lon="6.24938">
        <ele>262.6</ele>
        <time>2018-02-23T14:11:35Z</time>
      </trkpt>
      <trkpt lat="43.51979" lon="6.24936">
        <ele>264</ele>
        <time>2018-02-23T14:11:49Z</time>
      </trkpt>
      <trkpt lat="43.51989" lon="6.24937">
        <ele>265.5</ele>
        <time>2018-02-23T14:12:03Z</time>
      </trkpt>
      <trkpt lat="43.51998" lon="6.24941">
        <ele>266.9</ele>
        <time>2018-02-23T14:12:17Z</time>
      </trkpt>
      <trkpt lat="43.52004" lon="6.2495">
        <ele>268.2</ele>
        <time>2018-02-23T14:12:28Z</time>
      </trkpt>
      <trkpt lat="43.52011" lon="6.24958">
        <ele>270.5</ele>
        <time>2018-02-23T14:12:47Z</time>
      </trkpt>
      <trkpt lat="43.52019" lon="6.24965">
        <ele>271.8</ele>
        <time>2018-02-23T14:12:57Z</time>
      </trkpt>
      <trkpt lat="43.52026" lon="6.24972">
        <ele>273.5</ele>
        <time>2018-02-23T14:13:15Z</time>
      </trkpt>
      <trkpt lat="43.52032" lon="6.24982">
        <ele>275</ele>
        <time>2018-02-23T14:13:29Z</time>
      </trkpt>
      <trkpt lat="43.52037" lon="6.24994">
        <ele>277.3</ele>
        <time>2018-02-23T14:13:47Z</time>
      </trkpt>
      <trkpt lat="43.52041" lon="6.25005">
        <ele>278.5</ele>
        <time>2018-02-23T14:13:59Z</time>
      </trkpt>
      <trkpt lat="43.52048" lon="6.25015">
        <ele>279.6</ele>
        <time>2018-02-23T14:14:12Z</time>
      </trkpt>
      <trkpt lat="43.52053" lon="6.25026">
        <ele>280.6</ele>
        <time>2018-02-23T14:14:24Z</time>
      </trkpt>
      <trkpt lat="43.52059" lon="6.25036">
        <ele>281.8</ele>
        <time>2018-02-23T14:14:37Z</time>
      </trkpt>
      <trkpt lat="43.52064" lon="6.25047">
        <ele>283.6</ele>
        <time>2018-02-23T14:14:56Z</time>
      </trkpt>
      <trkpt lat="43.5207" lon="6.25058">
        <ele>285.1</ele>
        <time>2018-02-23T14:15:11Z</time>
      </trkpt>
      <trkpt lat="43.52076" lon="6.25067">
        <ele>287.3</ele>
        <time>2018-02-23T14:15:31Z</time>
      </trkpt>
      <trkpt lat="43.52082" lon="6.25076">
        <ele>288.8</ele>
        <time>2018-02-23T14:15:48Z</time>
      </trkpt>
      <trkpt lat="43.5209" lon="6.25084">
        <ele>290.6</ele>
        <time>2018-02-23T14:16:05Z</time>
      </trkpt>
      <trkpt lat="43.52098" lon="6.2509">
        <ele>292.3</ele>
        <time>2018-02-23T14:16:20Z</time>
      </trkpt>
      <trkpt lat="43.52106" lon="6.25097">
        <ele>293.2</ele>
        <time>2018-02-23T14:16:31Z</time>
      </trkpt>
      <trkpt lat="43.52113" lon="6.25104">
        <ele>294.7</ele>
        <time>2018-02-23T14:16:50Z</time>
      </trkpt>
      <trkpt lat="43.52118" lon="6.25093">
        <ele>295.3</ele>
        <time>2018-02-23T14:24:59Z</time>
      </trkpt>
      <trkpt lat="43.52123" lon="6.25081">
        <ele>295.6</ele>
        <time>2018-02-23T14:25:12Z</time>
      </trkpt>
      <trkpt lat="43.52129" lon="6.25072">
        <ele>295.6</ele>
        <time>2018-02-23T14:25:39Z</time>
      </trkpt>
      <trkpt lat="43.52128" lon="6.25059">
        <ele>295.6</ele>
        <time>2018-02-23T14:25:59Z</time>
      </trkpt>
      <trkpt lat="43.52126" lon="6.25047">
        <ele>295.5</ele>
        <time>2018-02-23T14:26:10Z</time>
      </trkpt>
      <trkpt lat="43.52125" lon="6.25034">
        <ele>295.6</ele>
        <time>2018-02-23T14:26:20Z</time>
      </trkpt>
      <trkpt lat="43.52124" lon="6.25022">
        <ele>295.9</ele>
        <time>2018-02-23T14:26:30Z</time>
      </trkpt>
      <trkpt lat="43.52124" lon="6.25009">
        <ele>295.9</ele>
        <time>2018-02-23T14:26:39Z</time>
      </trkpt>
      <trkpt lat="43.52124" lon="6.24997">
        <ele>296</ele>
        <time>2018-02-23T14:26:48Z</time>
      </trkpt>
      <trkpt lat="43.5212" lon="6.24985">
        <ele>296.2</ele>
        <time>2018-02-23T14:26:58Z</time>
      </trkpt>
      <trkpt lat="43.52113" lon="6.24976">
        <ele>296.5</ele>
        <time>2018-02-23T14:27:07Z</time>
      </trkpt>
      <trkpt lat="43.52106" lon="6.24968">
        <ele>296.3</ele>
        <time>2018-02-23T14:27:16Z</time>
      </trkpt>
      <trkpt lat="43.52101" lon="6.24957">
        <ele>296</ele>
        <time>2018-02-23T14:27:25Z</time>
      </trkpt>
      <trkpt lat="43.52098" lon="6.24945">
        <ele>296.1</ele>
        <time>2018-02-23T14:27:34Z</time>
      </trkpt>
      <trkpt lat="43.52097" lon="6.24932">
        <ele>296.3</ele>
        <time>2018-02-23T14:27:42Z</time>
      </trkpt>
      <trkpt lat="43.52098" lon="6.24919">
        <ele>296.4</ele>
        <time>2018-02-23T14:27:52Z</time>
      </trkpt>
      <trkpt lat="43.52096" lon="6.24906">
        <ele>296.7</ele>
        <time>2018-02-23T14:28:01Z</time>
      </trkpt>
      <trkpt lat="43.52093" lon="6.24894">
        <ele>297.2</ele>
        <time>2018-02-23T14:28:10Z</time>
      </trkpt>
      <trkpt lat="43.52093" lon="6.24881">
        <ele>297.5</ele>
        <time>2018-02-23T14:28:19Z</time>
      </trkpt>
      <trkpt lat="43.52094" lon="6.24868">
        <ele>298.1</ele>
        <time>2018-02-23T14:28:28Z</time>
      </trkpt>
      <trkpt lat="43.52093" lon="6.24854">
        <ele>298.7</ele>
        <time>2018-02-23T14:28:39Z</time>
      </trkpt>
      <trkpt lat="43.52095" lon="6.24841">
        <ele>299.5</ele>
        <time>2018-02-23T14:28:50Z</time>
      </trkpt>
      <trkpt lat="43.52097" lon="6.24828">
        <ele>300.6</ele>
        <time>2018-02-23T14:28:59Z</time>
      </trkpt>
      <trkpt lat="43.52099" lon="6.24815">
        <ele>301.4</ele>
        <time>2018-02-23T14:29:09Z</time>
      </trkpt>
      <trkpt lat="43.521" lon="6.24801">
        <ele>302.4</ele>
        <time>2018-02-23T14:29:19Z</time>
      </trkpt>
      <trkpt lat="43.52103" lon="6.24789">
        <ele>303.2</ele>
        <time>2018-02-23T14:29:28Z</time>
      </trkpt>
      <trkpt lat="43.52107" lon="6.24777">
        <ele>303.6</ele>
        <time>2018-02-23T14:29:37Z</time>
      </trkpt>
      <trkpt lat="43.52112" lon="6.24766">
        <ele>304.5</ele>
        <time>2018-02-23T14:29:46Z</time>
      </trkpt>
      <trkpt lat="43.52119" lon="6.24758">
        <ele>305.2</ele>
        <time>2018-02-23T14:29:54Z</time>
      </trkpt>
      <trkpt lat="43.52128" lon="6.24752">
        <ele>305.9</ele>
        <time>2018-02-23T14:30:02Z</time>
      </trkpt>
      <trkpt lat="43.52136" lon="6.24746">
        <ele>306.5</ele>
        <time>2018-02-23T14:30:10Z</time>
      </trkpt>
      <trkpt lat="43.52144" lon="6.2474">
        <ele>307.2</ele>
        <time>2018-02-23T14:30:19Z</time>
      </trkpt>
      <trkpt lat="43.52152" lon="6.24734">
        <ele>308</ele>
        <time>2018-02-23T14:30:28Z</time>
      </trkpt>
      <trkpt lat="43.52158" lon="6.24724">
        <ele>308.5</ele>
        <time>2018-02-23T14:30:39Z</time>
      </trkpt>
      <trkpt lat="43.52164" lon="6.24713">
        <ele>309.6</ele>
        <time>2018-02-23T14:30:50Z</time>
      </trkpt>
      <trkpt lat="43.52171" lon="6.24703">
        <ele>310.5</ele>
        <time>2018-02-23T14:31:00Z</time>
      </trkpt>
      <trkpt lat="43.52176" lon="6.24692">
        <ele>311.1</ele>
        <time>2018-02-23T14:31:09Z</time>
      </trkpt>
      <trkpt lat="43.52181" lon="6.2468">
        <ele>311.7</ele>
        <time>2018-02-23T14:31:18Z</time>
      </trkpt>
      <trkpt lat="43.52186" lon="6.24669">
        <ele>312.3</ele>
        <time>2018-02-23T14:31:28Z</time>
      </trkpt>
      <trkpt lat="43.52191" lon="6.24659">
        <ele>312.8</ele>
        <time>2018-02-23T14:31:36Z</time>
      </trkpt>
      <trkpt lat="43.52196" lon="6.24648">
        <ele>313.3</ele>
        <time>2018-02-23T14:31:46Z</time>
      </trkpt>
      <trkpt lat="43.52199" lon="6.24635">
        <ele>313.6</ele>
        <time>2018-02-23T14:31:55Z</time>
      </trkpt>
      <trkpt lat="43.52203" lon="6.24622">
        <ele>313.8</ele>
        <time>2018-02-23T14:32:06Z</time>
      </trkpt>
      <trkpt lat="43.52206" lon="6.24609">
        <ele>314.2</ele>
        <time>2018-02-23T14:32:15Z</time>
      </trkpt>
      <trkpt lat="43.52208" lon="6.24597">
        <ele>314.9</ele>
        <time>2018-02-23T14:32:26Z</time>
      </trkpt>
      <trkpt lat="43.5221" lon="6.24584">
        <ele>314.9</ele>
        <time>2018-02-23T14:32:35Z</time>
      </trkpt>
      <trkpt lat="43.52212" lon="6.24572">
        <ele>314.8</ele>
        <time>2018-02-23T14:32:43Z</time>
      </trkpt>
      <trkpt lat="43.52212" lon="6.24559">
        <ele>314.9</ele>
        <time>2018-02-23T14:32:52Z</time>
      </trkpt>
      <trkpt lat="43.52208" lon="6.24548">
        <ele>314.8</ele>
        <time>2018-02-23T14:33:02Z</time>
      </trkpt>
      <trkpt lat="43.52205" lon="6.24535">
        <ele>314.8</ele>
        <time>2018-02-23T14:33:13Z</time>
      </trkpt>
      <trkpt lat="43.52208" lon="6.24522">
        <ele>314.7</ele>
        <time>2018-02-23T14:33:22Z</time>
      </trkpt>
      <trkpt lat="43.52212" lon="6.2451">
        <ele>314.3</ele>
        <time>2018-02-23T14:33:32Z</time>
      </trkpt>
      <trkpt lat="43.52217" lon="6.24498">
        <ele>314.3</ele>
        <time>2018-02-23T14:33:41Z</time>
      </trkpt>
      <trkpt lat="43.52221" lon="6.24487">
        <ele>313.9</ele>
        <time>2018-02-23T14:33:50Z</time>
      </trkpt>
      <trkpt lat="43.52226" lon="6.24477">
        <ele>314</ele>
        <time>2018-02-23T14:33:59Z</time>
      </trkpt>
      <trkpt lat="43.52224" lon="6.24464">
        <ele>312.7</ele>
        <time>2018-02-23T14:35:13Z</time>
      </trkpt>
      <trkpt lat="43.52222" lon="6.24452">
        <ele>311.4</ele>
        <time>2018-02-23T14:35:40Z</time>
      </trkpt>
      <trkpt lat="43.52224" lon="6.24439">
        <ele>310.3</ele>
        <time>2018-02-23T14:35:56Z</time>
      </trkpt>
      <trkpt lat="43.52227" lon="6.24427">
        <ele>308.2</ele>
        <time>2018-02-23T14:36:21Z</time>
      </trkpt>
      <trkpt lat="43.5223" lon="6.2444">
        <ele>309.3</ele>
        <time>2018-02-23T14:37:43Z</time>
      </trkpt>
      <trkpt lat="43.5223" lon="6.24452">
        <ele>311.2</ele>
        <time>2018-02-23T14:38:10Z</time>
      </trkpt>
      <trkpt lat="43.52231" lon="6.24465">
        <ele>312.3</ele>
        <time>2018-02-23T14:38:35Z</time>
      </trkpt>
      <trkpt lat="43.52224" lon="6.24473">
        <ele>313.1</ele>
        <time>2018-02-23T14:40:12Z</time>
      </trkpt>
      <trkpt lat="43.52221" lon="6.24485">
        <ele>313.1</ele>
        <time>2018-02-23T14:41:43Z</time>
      </trkpt>
      <trkpt lat="43.52218" lon="6.24498">
        <ele>313.4</ele>
        <time>2018-02-23T14:41:55Z</time>
      </trkpt>
      <trkpt lat="43.52214" lon="6.2451">
        <ele>313.9</ele>
        <time>2018-02-23T14:42:06Z</time>
      </trkpt>
      <trkpt lat="43.52211" lon="6.24522">
        <ele>314.3</ele>
        <time>2018-02-23T14:42:18Z</time>
      </trkpt>
      <trkpt lat="43.52214" lon="6.24535">
        <ele>314.6</ele>
        <time>2018-02-23T14:42:30Z</time>
      </trkpt>
      <trkpt lat="43.52218" lon="6.24546">
        <ele>314.6</ele>
        <time>2018-02-23T14:42:41Z</time>
      </trkpt>
      <trkpt lat="43.5222" lon="6.2456">
        <ele>314.3</ele>
        <time>2018-02-23T14:42:52Z</time>
      </trkpt>
      <trkpt lat="43.52219" lon="6.24573">
        <ele>314</ele>
        <time>2018-02-23T14:43:02Z</time>
      </trkpt>
      <trkpt lat="43.52215" lon="6.24584">
        <ele>314.2</ele>
        <time>2018-02-23T14:43:10Z</time>
      </trkpt>
      <trkpt lat="43.52213" lon="6.24597">
        <ele>314.4</ele>
        <time>2018-02-23T14:43:19Z</time>
      </trkpt>
      <trkpt lat="43.52212" lon="6.2461">
        <ele>314.5</ele>
        <time>2018-02-23T14:43:28Z</time>
      </trkpt>
      <trkpt lat="43.5221" lon="6.24623">
        <ele>314.6</ele>
        <time>2018-02-23T14:43:38Z</time>
      </trkpt>
      <trkpt lat="43.52206" lon="6.24635">
        <ele>314.3</ele>
        <time>2018-02-23T14:43:48Z</time>
      </trkpt>
      <trkpt lat="43.52201" lon="6.24646">
        <ele>313.7</ele>
        <time>2018-02-23T14:43:57Z</time>
      </trkpt>
      <trkpt lat="43.52196" lon="6.24656">
        <ele>313.3</ele>
        <time>2018-02-23T14:44:07Z</time>
      </trkpt>
      <trkpt lat="43.52191" lon="6.24667">
        <ele>313.3</ele>
        <time>2018-02-23T14:44:16Z</time>
      </trkpt>
      <trkpt lat="43.52186" lon="6.24678">
        <ele>312.9</ele>
        <time>2018-02-23T14:44:25Z</time>
      </trkpt>
      <trkpt lat="43.52181" lon="6.24689">
        <ele>312.3</ele>
        <time>2018-02-23T14:44:36Z</time>
      </trkpt>
      <trkpt lat="43.52175" lon="6.24699">
        <ele>311.5</ele>
        <time>2018-02-23T14:44:46Z</time>
      </trkpt>
      <trkpt lat="43.52169" lon="6.2471">
        <ele>310.9</ele>
        <time>2018-02-23T14:44:55Z</time>
      </trkpt>
      <trkpt lat="43.52164" lon="6.2472">
        <ele>310.1</ele>
        <time>2018-02-23T14:45:05Z</time>
      </trkpt>
      <trkpt lat="43.52157" lon="6.2473">
        <ele>309.4</ele>
        <time>2018-02-23T14:45:17Z</time>
      </trkpt>
      <trkpt lat="43.52149" lon="6.24737">
        <ele>308.2</ele>
        <time>2018-02-23T14:45:27Z</time>
      </trkpt>
      <trkpt lat="43.52142" lon="6.24744">
        <ele>307.9</ele>
        <time>2018-02-23T14:45:37Z</time>
      </trkpt>
      <trkpt lat="43.52134" lon="6.24751">
        <ele>307.1</ele>
        <time>2018-02-23T14:45:46Z</time>
      </trkpt>
      <trkpt lat="43.52125" lon="6.24757">
        <ele>306.5</ele>
        <time>2018-02-23T14:45:55Z</time>
      </trkpt>
      <trkpt lat="43.52118" lon="6.24766">
        <ele>305.8</ele>
        <time>2018-02-23T14:46:04Z</time>
      </trkpt>
      <trkpt lat="43.52112" lon="6.24777">
        <ele>305</ele>
        <time>2018-02-23T14:46:14Z</time>
      </trkpt>
      <trkpt lat="43.5211" lon="6.24789">
        <ele>304.1</ele>
        <time>2018-02-23T14:46:25Z</time>
      </trkpt>
      <trkpt lat="43.52109" lon="6.24802">
        <ele>303.2</ele>
        <time>2018-02-23T14:46:36Z</time>
      </trkpt>
      <trkpt lat="43.52107" lon="6.24815">
        <ele>301.6</ele>
        <time>2018-02-23T14:46:49Z</time>
      </trkpt>
      <trkpt lat="43.52106" lon="6.24828">
        <ele>300.9</ele>
        <time>2018-02-23T14:47:00Z</time>
      </trkpt>
      <trkpt lat="43.52104" lon="6.24841">
        <ele>300.2</ele>
        <time>2018-02-23T14:47:11Z</time>
      </trkpt>
      <trkpt lat="43.52103" lon="6.24855">
        <ele>299.2</ele>
        <time>2018-02-23T14:47:20Z</time>
      </trkpt>
      <trkpt lat="43.521" lon="6.24867">
        <ele>298.6</ele>
        <time>2018-02-23T14:47:27Z</time>
      </trkpt>
      <trkpt lat="43.52098" lon="6.24881">
        <ele>297.9</ele>
        <time>2018-02-23T14:47:35Z</time>
      </trkpt>
      <trkpt lat="43.521" lon="6.24894">
        <ele>296.8</ele>
        <time>2018-02-23T14:47:45Z</time>
      </trkpt>
      <trkpt lat="43.52101" lon="6.24906">
        <ele>296.6</ele>
        <time>2018-02-23T14:47:54Z</time>
      </trkpt>
      <trkpt lat="43.52101" lon="6.2492">
        <ele>296.3</ele>
        <time>2018-02-23T14:48:02Z</time>
      </trkpt>
      <trkpt lat="43.52102" lon="6.24933">
        <ele>296.1</ele>
        <time>2018-02-23T14:48:11Z</time>
      </trkpt>
      <trkpt lat="43.52105" lon="6.24944">
        <ele>295.8</ele>
        <time>2018-02-23T14:48:21Z</time>
      </trkpt>
      <trkpt lat="43.52111" lon="6.24955">
        <ele>295.3</ele>
        <time>2018-02-23T14:48:33Z</time>
      </trkpt>
      <trkpt lat="43.52117" lon="6.24964">
        <ele>295.2</ele>
        <time>2018-02-23T14:48:44Z</time>
      </trkpt>
      <trkpt lat="43.5212" lon="6.24977">
        <ele>295.1</ele>
        <time>2018-02-23T14:48:55Z</time>
      </trkpt>
      <trkpt lat="43.52123" lon="6.2499">
        <ele>295.2</ele>
        <time>2018-02-23T14:49:06Z</time>
      </trkpt>
      <trkpt lat="43.52124" lon="6.25003">
        <ele>295.5</ele>
        <time>2018-02-23T14:49:14Z</time>
      </trkpt>
      <trkpt lat="43.52125" lon="6.25016">
        <ele>295.4</ele>
        <time>2018-02-23T14:49:23Z</time>
      </trkpt>
      <trkpt lat="43.52125" lon="6.25029">
        <ele>295.4</ele>
        <time>2018-02-23T14:49:31Z</time>
      </trkpt>
      <trkpt lat="43.52126" lon="6.25042">
        <ele>294.9</ele>
        <time>2018-02-23T14:49:40Z</time>
      </trkpt>
      <trkpt lat="43.52128" lon="6.25055">
        <ele>294.2</ele>
        <time>2018-02-23T14:49:50Z</time>
      </trkpt>
      <trkpt lat="43.52128" lon="6.25068">
        <ele>293.8</ele>
        <time>2018-02-23T14:49:58Z</time>
      </trkpt>
      <trkpt lat="43.52124" lon="6.2508">
        <ele>293.7</ele>
        <time>2018-02-23T14:50:07Z</time>
      </trkpt>
      <trkpt lat="43.52118" lon="6.2509">
        <ele>293.8</ele>
        <time>2018-02-23T14:50:15Z</time>
      </trkpt>
      <trkpt lat="43.52116" lon="6.25103">
        <ele>293.6</ele>
        <time>2018-02-23T14:50:23Z</time>
      </trkpt>
      <trkpt lat="43.52116" lon="6.25116">
        <ele>293.3</ele>
        <time>2018-02-23T14:50:32Z</time>
      </trkpt>
      <trkpt lat="43.52118" lon="6.25129">
        <ele>292.5</ele>
        <time>2018-02-23T14:50:41Z</time>
      </trkpt>
      <trkpt lat="43.52119" lon="6.25142">
        <ele>292.2</ele>
        <time>2018-02-23T14:50:50Z</time>
      </trkpt>
      <trkpt lat="43.5212" lon="6.25155">
        <ele>292.2</ele>
        <time>2018-02-23T14:50:59Z</time>
      </trkpt>
      <trkpt lat="43.52122" lon="6.25167">
        <ele>292.1</ele>
        <time>2018-02-23T14:51:09Z</time>
      </trkpt>
      <trkpt lat="43.52123" lon="6.2518">
        <ele>292.2</ele>
        <time>2018-02-23T14:51:19Z</time>
      </trkpt>
      <trkpt lat="43.52121" lon="6.25192">
        <ele>291.9</ele>
        <time>2018-02-23T14:51:28Z</time>
      </trkpt>
      <trkpt lat="43.52122" lon="6.25205">
        <ele>291.5</ele>
        <time>2018-02-23T14:51:38Z</time>
      </trkpt>
      <trkpt lat="43.5212" lon="6.25218">
        <ele>291.6</ele>
        <time>2018-02-23T14:52:09Z</time>
      </trkpt>
      <trkpt lat="43.52123" lon="6.2523">
        <ele>291.6</ele>
        <time>2018-02-23T14:53:40Z</time>
      </trkpt>
      <trkpt lat="43.52126" lon="6.25242">
        <ele>292.3</ele>
        <time>2018-02-23T14:54:04Z</time>
      </trkpt>
      <trkpt lat="43.52128" lon="6.25255">
        <ele>292.2</ele>
        <time>2018-02-23T14:54:15Z</time>
      </trkpt>
      <trkpt lat="43.52129" lon="6.25268">
        <ele>292.5</ele>
        <time>2018-02-23T14:54:26Z</time>
      </trkpt>
      <trkpt lat="43.5213" lon="6.25281">
        <ele>292.9</ele>
        <time>2018-02-23T14:54:36Z</time>
      </trkpt>
      <trkpt lat="43.52131" lon="6.25294">
        <ele>293.3</ele>
        <time>2018-02-23T14:54:48Z</time>
      </trkpt>
      <trkpt lat="43.52132" lon="6.25307">
        <ele>293.5</ele>
        <time>2018-02-23T14:54:57Z</time>
      </trkpt>
      <trkpt lat="43.52133" lon="6.2532">
        <ele>293.8</ele>
        <time>2018-02-23T14:55:06Z</time>
      </trkpt>
      <trkpt lat="43.52135" lon="6.25333">
        <ele>294</ele>
        <time>2018-02-23T14:55:14Z</time>
      </trkpt>
      <trkpt lat="43.52136" lon="6.25345">
        <ele>294.2</ele>
        <time>2018-02-23T14:55:22Z</time>
      </trkpt>
      <trkpt lat="43.52138" lon="6.25359">
        <ele>294.4</ele>
        <time>2018-02-23T14:55:30Z</time>
      </trkpt>
      <trkpt lat="43.5214" lon="6.25371">
        <ele>294.3</ele>
        <time>2018-02-23T14:55:38Z</time>
      </trkpt>
      <trkpt lat="43.52144" lon="6.25383">
        <ele>293.8</ele>
        <time>2018-02-23T14:55:47Z</time>
      </trkpt>
      <trkpt lat="43.52148" lon="6.25395">
        <ele>293.5</ele>
        <time>2018-02-23T14:55:55Z</time>
      </trkpt>
      <trkpt lat="43.52153" lon="6.25405">
        <ele>293.4</ele>
        <time>2018-02-23T14:56:03Z</time>
      </trkpt>
      <trkpt lat="43.52156" lon="6.25418">
        <ele>292.8</ele>
        <time>2018-02-23T14:56:11Z</time>
      </trkpt>
      <trkpt lat="43.52156" lon="6.25431">
        <ele>292.8</ele>
        <time>2018-02-23T14:56:19Z</time>
      </trkpt>
      <trkpt lat="43.52155" lon="6.25444">
        <ele>293.1</ele>
        <time>2018-02-23T14:56:29Z</time>
      </trkpt>
      <trkpt lat="43.52159" lon="6.25456">
        <ele>292.1</ele>
        <time>2018-02-23T14:56:39Z</time>
      </trkpt>
      <trkpt lat="43.52164" lon="6.25466">
        <ele>291.7</ele>
        <time>2018-02-23T14:56:47Z</time>
      </trkpt>
      <trkpt lat="43.5217" lon="6.25476">
        <ele>291.7</ele>
        <time>2018-02-23T14:56:58Z</time>
      </trkpt>
      <trkpt lat="43.52179" lon="6.25481">
        <ele>291.5</ele>
        <time>2018-02-23T14:57:11Z</time>
      </trkpt>
      <trkpt lat="43.52184" lon="6.25491">
        <ele>291.5</ele>
        <time>2018-02-23T14:57:29Z</time>
      </trkpt>
      <trkpt lat="43.52186" lon="6.25503">
        <ele>291.6</ele>
        <time>2018-02-23T14:57:42Z</time>
      </trkpt>
      <trkpt lat="43.52194" lon="6.25498">
        <ele>291.5</ele>
        <time>2018-02-23T14:58:00Z</time>
      </trkpt>
      <trkpt lat="43.52204" lon="6.25498">
        <ele>291.1</ele>
        <time>2018-02-23T14:58:16Z</time>
      </trkpt>
      <trkpt lat="43.52213" lon="6.25502">
        <ele>291.5</ele>
        <time>2018-02-23T14:58:24Z</time>
      </trkpt>
      <trkpt lat="43.52223" lon="6.25503">
        <ele>291.2</ele>
        <time>2018-02-23T14:58:35Z</time>
      </trkpt>
      <trkpt lat="43.52232" lon="6.25508">
        <ele>291.3</ele>
        <time>2018-02-23T14:58:44Z</time>
      </trkpt>
      <trkpt lat="43.5224" lon="6.25513">
        <ele>291.7</ele>
        <time>2018-02-23T14:58:52Z</time>
      </trkpt>
      <trkpt lat="43.52249" lon="6.25518">
        <ele>291.5</ele>
        <time>2018-02-23T14:58:59Z</time>
      </trkpt>
      <trkpt lat="43.52258" lon="6.25521">
        <ele>291.7</ele>
        <time>2018-02-23T14:59:07Z</time>
      </trkpt>
      <trkpt lat="43.52267" lon="6.25526">
        <ele>291.6</ele>
        <time>2018-02-23T14:59:17Z</time>
      </trkpt>
      <trkpt lat="43.52276" lon="6.25529">
        <ele>291.5</ele>
        <time>2018-02-23T14:59:26Z</time>
      </trkpt>
      <trkpt lat="43.52285" lon="6.25533">
        <ele>291.1</ele>
        <time>2018-02-23T14:59:35Z</time>
      </trkpt>
      <trkpt lat="43.52294" lon="6.25538">
        <ele>290.4</ele>
        <time>2018-02-23T14:59:42Z</time>
      </trkpt>
      <trkpt lat="43.52302" lon="6.25545">
        <ele>289.5</ele>
        <time>2018-02-23T14:59:50Z</time>
      </trkpt>
      <trkpt lat="43.5231" lon="6.25554">
        <ele>288.3</ele>
        <time>2018-02-23T14:59:59Z</time>
      </trkpt>
      <trkpt lat="43.52316" lon="6.25565">
        <ele>286.9</ele>
        <time>2018-02-23T15:00:09Z</time>
      </trkpt>
      <trkpt lat="43.52322" lon="6.25576">
        <ele>285.7</ele>
        <time>2018-02-23T15:00:19Z</time>
      </trkpt>
      <trkpt lat="43.52328" lon="6.25586">
        <ele>284.6</ele>
        <time>2018-02-23T15:00:29Z</time>
      </trkpt>
      <trkpt lat="43.52334" lon="6.25596">
        <ele>283.7</ele>
        <time>2018-02-23T15:00:37Z</time>
      </trkpt>
      <trkpt lat="43.52339" lon="6.25606">
        <ele>283</ele>
        <time>2018-02-23T15:00:45Z</time>
      </trkpt>
      <trkpt lat="43.52344" lon="6.25618">
        <ele>282.3</ele>
        <time>2018-02-23T15:00:53Z</time>
      </trkpt>
      <trkpt lat="43.52351" lon="6.25629">
        <ele>281.4</ele>
        <time>2018-02-23T15:01:01Z</time>
      </trkpt>
      <trkpt lat="43.52358" lon="6.25637">
        <ele>280.6</ele>
        <time>2018-02-23T15:01:09Z</time>
      </trkpt>
      <trkpt lat="43.52364" lon="6.25647">
        <ele>279</ele>
        <time>2018-02-23T15:01:19Z</time>
      </trkpt>
      <trkpt lat="43.52371" lon="6.25656">
        <ele>277.7</ele>
        <time>2018-02-23T15:01:29Z</time>
      </trkpt>
      <trkpt lat="43.52378" lon="6.25665">
        <ele>276</ele>
        <time>2018-02-23T15:01:39Z</time>
      </trkpt>
      <trkpt lat="43.52384" lon="6.25675">
        <ele>274.5</ele>
        <time>2018-02-23T15:01:48Z</time>
      </trkpt>
      <trkpt lat="43.5239" lon="6.25686">
        <ele>273.5</ele>
        <time>2018-02-23T15:01:57Z</time>
      </trkpt>
      <trkpt lat="43.52397" lon="6.25694">
        <ele>272.4</ele>
        <time>2018-02-23T15:02:06Z</time>
      </trkpt>
      <trkpt lat="43.52404" lon="6.25703">
        <ele>271.4</ele>
        <time>2018-02-23T15:02:15Z</time>
      </trkpt>
      <trkpt lat="43.5241" lon="6.25713">
        <ele>270.4</ele>
        <time>2018-02-23T15:02:26Z</time>
      </trkpt>
      <trkpt lat="43.52416" lon="6.25724">
        <ele>269.3</ele>
        <time>2018-02-23T15:02:35Z</time>
      </trkpt>
      <trkpt lat="43.52421" lon="6.25736">
        <ele>268.7</ele>
        <time>2018-02-23T15:02:46Z</time>
      </trkpt>
      <trkpt lat="43.52423" lon="6.25748">
        <ele>268.7</ele>
        <time>2018-02-23T15:03:22Z</time>
      </trkpt>
      <trkpt lat="43.52416" lon="6.25755">
        <ele>268.3</ele>
        <time>2018-02-23T15:04:32Z</time>
      </trkpt>
      <trkpt lat="43.52423" lon="6.25746">
        <ele>267.3</ele>
        <time>2018-02-23T15:05:07Z</time>
      </trkpt>
      <trkpt lat="43.52426" lon="6.25734">
        <ele>266.8</ele>
        <time>2018-02-23T15:05:13Z</time>
      </trkpt>
      <trkpt lat="43.5243" lon="6.25722">
        <ele>266.1</ele>
        <time>2018-02-23T15:05:21Z</time>
      </trkpt>
      <trkpt lat="43.52433" lon="6.2571">
        <ele>265.7</ele>
        <time>2018-02-23T15:05:31Z</time>
      </trkpt>
      <trkpt lat="43.52437" lon="6.25697">
        <ele>264.9</ele>
        <time>2018-02-23T15:05:42Z</time>
      </trkpt>
      <trkpt lat="43.52437" lon="6.25685">
        <ele>264.7</ele>
        <time>2018-02-23T15:05:51Z</time>
      </trkpt>
      <trkpt lat="43.52437" lon="6.25672">
        <ele>264.4</ele>
        <time>2018-02-23T15:06:01Z</time>
      </trkpt>
      <trkpt lat="43.52438" lon="6.25658">
        <ele>263.8</ele>
        <time>2018-02-23T15:06:09Z</time>
      </trkpt>
      <trkpt lat="43.52439" lon="6.25645">
        <ele>263</ele>
        <time>2018-02-23T15:06:18Z</time>
      </trkpt>
      <trkpt lat="43.52443" lon="6.25633">
        <ele>262.3</ele>
        <time>2018-02-23T15:06:27Z</time>
      </trkpt>
      <trkpt lat="43.52446" lon="6.25621">
        <ele>261.9</ele>
        <time>2018-02-23T15:06:36Z</time>
      </trkpt>
      <trkpt lat="43.52447" lon="6.25608">
        <ele>261.5</ele>
        <time>2018-02-23T15:06:45Z</time>
      </trkpt>
      <trkpt lat="43.52446" lon="6.25595">
        <ele>260.9</ele>
        <time>2018-02-23T15:06:56Z</time>
      </trkpt>
      <trkpt lat="43.52446" lon="6.25581">
        <ele>260.4</ele>
        <time>2018-02-23T15:07:06Z</time>
      </trkpt>
      <trkpt lat="43.52447" lon="6.25568">
        <ele>260.4</ele>
        <time>2018-02-23T15:07:14Z</time>
      </trkpt>
      <trkpt lat="43.52449" lon="6.25556">
        <ele>260</ele>
        <time>2018-02-23T15:07:26Z</time>
      </trkpt>
      <trkpt lat="43.52451" lon="6.25542">
        <ele>259.6</ele>
        <time>2018-02-23T15:07:36Z</time>
      </trkpt>
      <trkpt lat="43.52452" lon="6.25529">
        <ele>259.6</ele>
        <time>2018-02-23T15:07:45Z</time>
      </trkpt>
      <trkpt lat="43.52451" lon="6.25516">
        <ele>258.9</ele>
        <time>2018-02-23T15:07:55Z</time>
      </trkpt>
      <trkpt lat="43.52451" lon="6.25503">
        <ele>258.3</ele>
        <time>2018-02-23T15:08:05Z</time>
      </trkpt>
      <trkpt lat="43.52451" lon="6.2549">
        <ele>256.7</ele>
        <time>2018-02-23T15:08:14Z</time>
      </trkpt>
      <trkpt lat="43.52449" lon="6.25477">
        <ele>256</ele>
        <time>2018-02-23T15:08:22Z</time>
      </trkpt>
      <trkpt lat="43.52444" lon="6.25467">
        <ele>254.8</ele>
        <time>2018-02-23T15:08:33Z</time>
      </trkpt>
      <trkpt lat="43.5244" lon="6.25455">
        <ele>254</ele>
        <time>2018-02-23T15:08:41Z</time>
      </trkpt>
      <trkpt lat="43.52435" lon="6.25443">
        <ele>253.2</ele>
        <time>2018-02-23T15:08:51Z</time>
      </trkpt>
      <trkpt lat="43.52433" lon="6.2543">
        <ele>252.5</ele>
        <time>2018-02-23T15:09:01Z</time>
      </trkpt>
      <trkpt lat="43.52433" lon="6.25416">
        <ele>252.2</ele>
        <time>2018-02-23T15:09:09Z</time>
      </trkpt>
      <trkpt lat="43.52434" lon="6.25403">
        <ele>251.6</ele>
        <time>2018-02-23T15:09:16Z</time>
      </trkpt>
      <trkpt lat="43.52428" lon="6.25393">
        <ele>251</ele>
        <time>2018-02-23T15:09:27Z</time>
      </trkpt>
      <trkpt lat="43.52424" lon="6.2538">
        <ele>250.1</ele>
        <time>2018-02-23T15:09:35Z</time>
      </trkpt>
      <trkpt lat="43.5242" lon="6.25368">
        <ele>248.8</ele>
        <time>2018-02-23T15:09:45Z</time>
      </trkpt>
      <trkpt lat="43.52414" lon="6.25357">
        <ele>248.2</ele>
        <time>2018-02-23T15:09:52Z</time>
      </trkpt>
      <trkpt lat="43.5241" lon="6.25346">
        <ele>247.4</ele>
        <time>2018-02-23T15:09:59Z</time>
      </trkpt>
      <trkpt lat="43.5241" lon="6.25332">
        <ele>246.7</ele>
        <time>2018-02-23T15:10:05Z</time>
      </trkpt>
      <trkpt lat="43.52406" lon="6.2532">
        <ele>245.8</ele>
        <time>2018-02-23T15:10:12Z</time>
      </trkpt>
      <trkpt lat="43.52398" lon="6.25312">
        <ele>245.2</ele>
        <time>2018-02-23T15:10:19Z</time>
      </trkpt>
      <trkpt lat="43.52397" lon="6.253">
        <ele>244.8</ele>
        <time>2018-02-23T15:10:27Z</time>
      </trkpt>
      <trkpt lat="43.52397" lon="6.25287">
        <ele>244.6</ele>
        <time>2018-02-23T15:10:36Z</time>
      </trkpt>
      <trkpt lat="43.52399" lon="6.25274">
        <ele>243.5</ele>
        <time>2018-02-23T15:10:45Z</time>
      </trkpt>
      <trkpt lat="43.52403" lon="6.25262">
        <ele>242.6</ele>
        <time>2018-02-23T15:10:53Z</time>
      </trkpt>
      <trkpt lat="43.52407" lon="6.25249">
        <ele>241.8</ele>
        <time>2018-02-23T15:11:01Z</time>
      </trkpt>
      <trkpt lat="43.52411" lon="6.25237">
        <ele>241.3</ele>
        <time>2018-02-23T15:11:08Z</time>
      </trkpt>
      <trkpt lat="43.52414" lon="6.25226">
        <ele>241.1</ele>
        <time>2018-02-23T15:11:14Z</time>
      </trkpt>
      <trkpt lat="43.5242" lon="6.25214">
        <ele>240.8</ele>
        <time>2018-02-23T15:11:22Z</time>
      </trkpt>
      <trkpt lat="43.52427" lon="6.25205">
        <ele>239.8</ele>
        <time>2018-02-23T15:11:30Z</time>
      </trkpt>
      <trkpt lat="43.52436" lon="6.252">
        <ele>238.8</ele>
        <time>2018-02-23T15:11:38Z</time>
      </trkpt>
      <trkpt lat="43.52444" lon="6.25194">
        <ele>238.1</ele>
        <time>2018-02-23T15:11:46Z</time>
      </trkpt>
      <trkpt lat="43.5245" lon="6.25184">
        <ele>236.8</ele>
        <time>2018-02-23T15:12:01Z</time>
      </trkpt>
      <trkpt lat="43.5245" lon="6.25171">
        <ele>235.8</ele>
        <time>2018-02-23T15:12:12Z</time>
      </trkpt>
      <trkpt lat="43.52452" lon="6.25158">
        <ele>235</ele>
        <time>2018-02-23T15:12:22Z</time>
      </trkpt>
      <trkpt lat="43.52454" lon="6.25144">
        <ele>234.3</ele>
        <time>2018-02-23T15:12:30Z</time>
      </trkpt>
      <trkpt lat="43.52456" lon="6.25132">
        <ele>234.1</ele>
        <time>2018-02-23T15:12:38Z</time>
      </trkpt>
      <trkpt lat="43.52459" lon="6.2512">
        <ele>233.8</ele>
        <time>2018-02-23T15:12:46Z</time>
      </trkpt>
      <trkpt lat="43.52465" lon="6.25108">
        <ele>233.6</ele>
        <time>2018-02-23T15:12:53Z</time>
      </trkpt>
      <trkpt lat="43.5247" lon="6.25097">
        <ele>233.5</ele>
        <time>2018-02-23T15:12:59Z</time>
      </trkpt>
      <trkpt lat="43.52477" lon="6.25087">
        <ele>232.7</ele>
        <time>2018-02-23T15:13:07Z</time>
      </trkpt>
      <trkpt lat="43.52485" lon="6.25081">
        <ele>232.3</ele>
        <time>2018-02-23T15:13:18Z</time>
      </trkpt>
      <trkpt lat="43.52489" lon="6.25069">
        <ele>231.4</ele>
        <time>2018-02-23T15:13:29Z</time>
      </trkpt>
      <trkpt lat="43.52493" lon="6.25057">
        <ele>230.3</ele>
        <time>2018-02-23T15:13:40Z</time>
      </trkpt>
      <trkpt lat="43.52494" lon="6.25045">
        <ele>229.3</ele>
        <time>2018-02-23T15:13:54Z</time>
      </trkpt>
      <trkpt lat="43.52497" lon="6.25033">
        <ele>229.1</ele>
        <time>2018-02-23T15:14:21Z</time>
      </trkpt>
      <trkpt lat="43.52501" lon="6.25021">
        <ele>228.8</ele>
        <time>2018-02-23T15:14:44Z</time>
      </trkpt>
      <trkpt lat="43.52504" lon="6.25009">
        <ele>227.8</ele>
        <time>2018-02-23T15:14:56Z</time>
      </trkpt>
      <trkpt lat="43.52508" lon="6.24998">
        <ele>227.1</ele>
        <time>2018-02-23T15:15:06Z</time>
      </trkpt>
      <trkpt lat="43.52512" lon="6.24985">
        <ele>226.5</ele>
        <time>2018-02-23T15:15:16Z</time>
      </trkpt>
      <trkpt lat="43.52517" lon="6.24974">
        <ele>225.1</ele>
        <time>2018-02-23T15:15:27Z</time>
      </trkpt>
      <trkpt lat="43.52521" lon="6.24962">
        <ele>224.3</ele>
        <time>2018-02-23T15:15:36Z</time>
      </trkpt>
      <trkpt lat="43.52522" lon="6.2495">
        <ele>223.7</ele>
        <time>2018-02-23T15:15:45Z</time>
      </trkpt>
      <trkpt lat="43.52524" lon="6.24937">
        <ele>223.3</ele>
        <time>2018-02-23T15:15:53Z</time>
      </trkpt>
      <trkpt lat="43.52529" lon="6.24926">
        <ele>223</ele>
        <time>2018-02-23T15:16:01Z</time>
      </trkpt>
      <trkpt lat="43.52536" lon="6.24916">
        <ele>222.5</ele>
        <time>2018-02-23T15:16:09Z</time>
      </trkpt>
      <trkpt lat="43.52542" lon="6.24906">
        <ele>221.9</ele>
        <time>2018-02-23T15:16:19Z</time>
      </trkpt>
      <trkpt lat="43.52547" lon="6.24896">
        <ele>221.6</ele>
        <time>2018-02-23T15:16:29Z</time>
      </trkpt>
      <trkpt lat="43.52549" lon="6.24884">
        <ele>220.9</ele>
        <time>2018-02-23T15:16:38Z</time>
      </trkpt>
      <trkpt lat="43.5255" lon="6.2487">
        <ele>219.8</ele>
        <time>2018-02-23T15:16:48Z</time>
      </trkpt>
      <trkpt lat="43.52555" lon="6.24859">
        <ele>219.2</ele>
        <time>2018-02-23T15:16:54Z</time>
      </trkpt>
      <trkpt lat="43.52561" lon="6.24847">
        <ele>218.6</ele>
        <time>2018-02-23T15:17:01Z</time>
      </trkpt>
      <trkpt lat="43.52569" lon="6.2484">
        <ele>217.8</ele>
        <time>2018-02-23T15:17:10Z</time>
      </trkpt>
      <trkpt lat="43.52576" lon="6.2483">
        <ele>217.5</ele>
        <time>2018-02-23T15:17:16Z</time>
      </trkpt>
      <trkpt lat="43.52583" lon="6.24821">
        <ele>216.3</ele>
        <time>2018-02-23T15:17:25Z</time>
      </trkpt>
      <trkpt lat="43.52591" lon="6.24814">
        <ele>216</ele>
        <time>2018-02-23T15:17:32Z</time>
      </trkpt>
      <trkpt lat="43.526" lon="6.2481">
        <ele>215.3</ele>
        <time>2018-02-23T15:17:39Z</time>
      </trkpt>
      <trkpt lat="43.52608" lon="6.24804">
        <ele>214.8</ele>
        <time>2018-02-23T15:17:45Z</time>
      </trkpt>
      <trkpt lat="43.52618" lon="6.24801">
        <ele>214</ele>
        <time>2018-02-23T15:17:53Z</time>
      </trkpt>
      <trkpt lat="43.52627" lon="6.248">
        <ele>213.4</ele>
        <time>2018-02-23T15:18:02Z</time>
      </trkpt>
      <trkpt lat="43.52635" lon="6.24793">
        <ele>212.6</ele>
        <time>2018-02-23T15:18:12Z</time>
      </trkpt>
      <trkpt lat="43.52643" lon="6.24787">
        <ele>211.2</ele>
        <time>2018-02-23T15:18:21Z</time>
      </trkpt>
      <trkpt lat="43.52654" lon="6.24785">
        <ele>210.2</ele>
        <time>2018-02-23T15:18:30Z</time>
      </trkpt>
      <trkpt lat="43.52662" lon="6.24782">
        <ele>209.2</ele>
        <time>2018-02-23T15:18:39Z</time>
      </trkpt>
      <trkpt lat="43.52672" lon="6.24775">
        <ele>208.4</ele>
        <time>2018-02-23T15:18:49Z</time>
      </trkpt>
      <trkpt lat="43.52679" lon="6.24768">
        <ele>208</ele>
        <time>2018-02-23T15:18:56Z</time>
      </trkpt>
      <trkpt lat="43.52685" lon="6.24758">
        <ele>207.6</ele>
        <time>2018-02-23T15:19:08Z</time>
      </trkpt>
      <trkpt lat="43.52688" lon="6.24744">
        <ele>206.3</ele>
        <time>2018-02-23T15:19:20Z</time>
      </trkpt>
      <trkpt lat="43.5269" lon="6.24732">
        <ele>205.6</ele>
        <time>2018-02-23T15:19:28Z</time>
      </trkpt>
      <trkpt lat="43.52693" lon="6.24719">
        <ele>205.4</ele>
        <time>2018-02-23T15:19:36Z</time>
      </trkpt>
      <trkpt lat="43.52695" lon="6.24707">
        <ele>204.9</ele>
        <time>2018-02-23T15:19:46Z</time>
      </trkpt>
      <trkpt lat="43.52699" lon="6.24695">
        <ele>204.6</ele>
        <time>2018-02-23T15:19:52Z</time>
      </trkpt>
      <trkpt lat="43.52699" lon="6.24682">
        <ele>203.5</ele>
        <time>2018-02-23T15:20:04Z</time>
      </trkpt>
      <trkpt lat="43.52703" lon="6.2467">
        <ele>203.2</ele>
        <time>2018-02-23T15:20:11Z</time>
      </trkpt>
      <trkpt lat="43.52705" lon="6.24655">
        <ele>202.6</ele>
        <time>2018-02-23T15:20:18Z</time>
      </trkpt>
      <trkpt lat="43.52708" lon="6.24643">
        <ele>201.9</ele>
        <time>2018-02-23T15:20:25Z</time>
      </trkpt>
      <trkpt lat="43.5271" lon="6.2463">
        <ele>201.4</ele>
        <time>2018-02-23T15:20:33Z</time>
      </trkpt>
      <trkpt lat="43.52714" lon="6.24618">
        <ele>200.6</ele>
        <time>2018-02-23T15:20:44Z</time>
      </trkpt>
      <trkpt lat="43.52719" lon="6.24606">
        <ele>200.3</ele>
        <time>2018-02-23T15:20:53Z</time>
      </trkpt>
      <trkpt lat="43.52724" lon="6.24595">
        <ele>200.2</ele>
        <time>2018-02-23T15:21:00Z</time>
      </trkpt>
      <trkpt lat="43.5273" lon="6.24586">
        <ele>199.8</ele>
        <time>2018-02-23T15:21:08Z</time>
      </trkpt>
      <trkpt lat="43.52737" lon="6.24576">
        <ele>199.3</ele>
        <time>2018-02-23T15:21:16Z</time>
      </trkpt>
      <trkpt lat="43.52741" lon="6.24564">
        <ele>198.7</ele>
        <time>2018-02-23T15:21:25Z</time>
      </trkpt>
      <trkpt lat="43.52747" lon="6.24553">
        <ele>198.2</ele>
        <time>2018-02-23T15:21:37Z</time>
      </trkpt>
      <trkpt lat="43.52752" lon="6.24542">
        <ele>197.7</ele>
        <time>2018-02-23T15:21:52Z</time>
      </trkpt>
      <trkpt lat="43.52745" lon="6.24536">
        <ele>197.6</ele>
        <time>2018-02-23T15:23:25Z</time>
      </trkpt>
      <trkpt lat="43.5274" lon="6.24525">
        <ele>198.7</ele>
        <time>2018-02-23T15:23:39Z</time>
      </trkpt>
      <trkpt lat="43.52736" lon="6.24513">
        <ele>199.3</ele>
        <time>2018-02-23T15:23:48Z</time>
      </trkpt>
      <trkpt lat="43.52733" lon="6.245">
        <ele>199.9</ele>
        <time>2018-02-23T15:23:58Z</time>
      </trkpt>
      <trkpt lat="43.52728" lon="6.2449">
        <ele>200.2</ele>
        <time>2018-02-23T15:24:09Z</time>
      </trkpt>
      <trkpt lat="43.52723" lon="6.24479">
        <ele>200.7</ele>
        <time>2018-02-23T15:24:21Z</time>
      </trkpt>
      <trkpt lat="43.52716" lon="6.24471">
        <ele>201.5</ele>
        <time>2018-02-23T15:24:32Z</time>
      </trkpt>
      <trkpt lat="43.52706" lon="6.24466">
        <ele>201.8</ele>
        <time>2018-02-23T15:24:40Z</time>
      </trkpt>
      <trkpt lat="43.52697" lon="6.24461">
        <ele>202.2</ele>
        <time>2018-02-23T15:24:48Z</time>
      </trkpt>
      <trkpt lat="43.5269" lon="6.24453">
        <ele>202.6</ele>
        <time>2018-02-23T15:24:57Z</time>
      </trkpt>
      <trkpt lat="43.52683" lon="6.24444">
        <ele>202.5</ele>
        <time>2018-02-23T15:25:04Z</time>
      </trkpt>
      <trkpt lat="43.52675" lon="6.24438">
        <ele>202.6</ele>
        <time>2018-02-23T15:25:11Z</time>
      </trkpt>
      <trkpt lat="43.52666" lon="6.24431">
        <ele>202.7</ele>
        <time>2018-02-23T15:25:19Z</time>
      </trkpt>
      <trkpt lat="43.52657" lon="6.24425">
        <ele>202.6</ele>
        <time>2018-02-23T15:25:27Z</time>
      </trkpt>
      <trkpt lat="43.52648" lon="6.24421">
        <ele>202.2</ele>
        <time>2018-02-23T15:25:35Z</time>
      </trkpt>
      <trkpt lat="43.5264" lon="6.24416">
        <ele>201.6</ele>
        <time>2018-02-23T15:25:43Z</time>
      </trkpt>
      <trkpt lat="43.52631" lon="6.24412">
        <ele>200.8</ele>
        <time>2018-02-23T15:25:52Z</time>
      </trkpt>
      <trkpt lat="43.52622" lon="6.24408">
        <ele>200.1</ele>
        <time>2018-02-23T15:26:02Z</time>
      </trkpt>
      <trkpt lat="43.52613" lon="6.24403">
        <ele>199.3</ele>
        <time>2018-02-23T15:26:12Z</time>
      </trkpt>
      <trkpt lat="43.52604" lon="6.24399">
        <ele>199</ele>
        <time>2018-02-23T15:26:22Z</time>
      </trkpt>
      <trkpt lat="43.52595" lon="6.24395">
        <ele>198.6</ele>
        <time>2018-02-23T15:26:29Z</time>
      </trkpt>
      <trkpt lat="43.52587" lon="6.2439">
        <ele>198.3</ele>
        <time>2018-02-23T15:26:37Z</time>
      </trkpt>
      <trkpt lat="43.52577" lon="6.24387">
        <ele>198.2</ele>
        <time>2018-02-23T15:26:46Z</time>
      </trkpt>
      <trkpt lat="43.52568" lon="6.24381">
        <ele>197.9</ele>
        <time>2018-02-23T15:26:55Z</time>
      </trkpt>
      <trkpt lat="43.52558" lon="6.24379">
        <ele>197.2</ele>
        <time>2018-02-23T15:27:04Z</time>
      </trkpt>
      <trkpt lat="43.52549" lon="6.24374">
        <ele>196.6</ele>
        <time>2018-02-23T15:27:12Z</time>
      </trkpt>
      <trkpt lat="43.5254" lon="6.2437">
        <ele>196.2</ele>
        <time>2018-02-23T15:27:20Z</time>
      </trkpt>
      <trkpt lat="43.52529" lon="6.24368">
        <ele>196.1</ele>
        <time>2018-02-23T15:27:28Z</time>
      </trkpt>
      <trkpt lat="43.5252" lon="6.24367">
        <ele>196.3</ele>
        <time>2018-02-23T15:27:35Z</time>
      </trkpt>
      <trkpt lat="43.5251" lon="6.24371">
        <ele>196.8</ele>
        <time>2018-02-23T15:27:43Z</time>
      </trkpt>
      <trkpt lat="43.52501" lon="6.24375">
        <ele>197.8</ele>
        <time>2018-02-23T15:27:52Z</time>
      </trkpt>
      <trkpt lat="43.52491" lon="6.24377">
        <ele>198.7</ele>
        <time>2018-02-23T15:28:01Z</time>
      </trkpt>
      <trkpt lat="43.52482" lon="6.2438">
        <ele>198.9</ele>
        <time>2018-02-23T15:28:10Z</time>
      </trkpt>
      <trkpt lat="43.52473" lon="6.2438">
        <ele>198.1</ele>
        <time>2018-02-23T15:28:19Z</time>
      </trkpt>
      <trkpt lat="43.52464" lon="6.24383">
        <ele>197.3</ele>
        <time>2018-02-23T15:28:28Z</time>
      </trkpt>
      <trkpt lat="43.52453" lon="6.24382">
        <ele>197</ele>
        <time>2018-02-23T15:28:35Z</time>
      </trkpt>
      <trkpt lat="43.52443" lon="6.24385">
        <ele>196.7</ele>
        <time>2018-02-23T15:28:43Z</time>
      </trkpt>
      <trkpt lat="43.52434" lon="6.24384">
        <ele>196.3</ele>
        <time>2018-02-23T15:28:51Z</time>
      </trkpt>
      <trkpt lat="43.52425" lon="6.24382">
        <ele>196</ele>
        <time>2018-02-23T15:28:59Z</time>
      </trkpt>
      <trkpt lat="43.52415" lon="6.2438">
        <ele>196.4</ele>
        <time>2018-02-23T15:29:15Z</time>
      </trkpt>
      <trkpt lat="43.52405" lon="6.24378">
        <ele>197.2</ele>
        <time>2018-02-23T15:29:23Z</time>
      </trkpt>
      <trkpt lat="43.52395" lon="6.24377">
        <ele>197.6</ele>
        <time>2018-02-23T15:29:29Z</time>
      </trkpt>
      <trkpt lat="43.52386" lon="6.24377">
        <ele>198.1</ele>
        <time>2018-02-23T15:29:37Z</time>
      </trkpt>
      <trkpt lat="43.52375" lon="6.24376">
        <ele>199</ele>
        <time>2018-02-23T15:29:48Z</time>
      </trkpt>
      <trkpt lat="43.52367" lon="6.24373">
        <ele>200.1</ele>
        <time>2018-02-23T15:29:57Z</time>
      </trkpt>
      <trkpt lat="43.52358" lon="6.24368">
        <ele>201.1</ele>
        <time>2018-02-23T15:30:11Z</time>
      </trkpt>
      <trkpt lat="43.52352" lon="6.24359">
        <ele>201.8</ele>
        <time>2018-02-23T15:30:20Z</time>
      </trkpt>
      <trkpt lat="43.52342" lon="6.24352">
        <ele>202.3</ele>
        <time>2018-02-23T15:30:29Z</time>
      </trkpt>
      <trkpt lat="43.52334" lon="6.24343">
        <ele>203.1</ele>
        <time>2018-02-23T15:30:37Z</time>
      </trkpt>
      <trkpt lat="43.52326" lon="6.24335">
        <ele>203.9</ele>
        <time>2018-02-23T15:30:47Z</time>
      </trkpt>
      <trkpt lat="43.52318" lon="6.24326">
        <ele>205.2</ele>
        <time>2018-02-23T15:30:57Z</time>
      </trkpt>
      <trkpt lat="43.52312" lon="6.24316">
        <ele>206.2</ele>
        <time>2018-02-23T15:31:07Z</time>
      </trkpt>
      <trkpt lat="43.52305" lon="6.24306">
        <ele>207.3</ele>
        <time>2018-02-23T15:31:16Z</time>
      </trkpt>
      <trkpt lat="43.52301" lon="6.24293">
        <ele>208.3</ele>
        <time>2018-02-23T15:31:28Z</time>
      </trkpt>
      <trkpt lat="43.52301" lon="6.2428">
        <ele>208.6</ele>
        <time>2018-02-23T15:31:37Z</time>
      </trkpt>
      <trkpt lat="43.52296" lon="6.2427">
        <ele>208.8</ele>
        <time>2018-02-23T15:31:45Z</time>
      </trkpt>
      <trkpt lat="43.52294" lon="6.24258">
        <ele>209</ele>
        <time>2018-02-23T15:31:54Z</time>
      </trkpt>
      <trkpt lat="43.5229" lon="6.24245">
        <ele>209.6</ele>
        <time>2018-02-23T15:32:03Z</time>
      </trkpt>
      <trkpt lat="43.52289" lon="6.24232">
        <ele>210.2</ele>
        <time>2018-02-23T15:32:12Z</time>
      </trkpt>
      <trkpt lat="43.52292" lon="6.2422">
        <ele>210.7</ele>
        <time>2018-02-23T15:32:20Z</time>
      </trkpt>
      <trkpt lat="43.52293" lon="6.24207">
        <ele>210.7</ele>
        <time>2018-02-23T15:32:30Z</time>
      </trkpt>
      <trkpt lat="43.52291" lon="6.24194">
        <ele>210.6</ele>
        <time>2018-02-23T15:32:39Z</time>
      </trkpt>
      <trkpt lat="43.5229" lon="6.24181">
        <ele>210.7</ele>
        <time>2018-02-23T15:32:48Z</time>
      </trkpt>
      <trkpt lat="43.5229" lon="6.24168">
        <ele>210.6</ele>
        <time>2018-02-23T15:32:58Z</time>
      </trkpt>
      <trkpt lat="43.5229" lon="6.24156">
        <ele>210.7</ele>
        <time>2018-02-23T15:33:06Z</time>
      </trkpt>
      <trkpt lat="43.5229" lon="6.24143">
        <ele>209.7</ele>
        <time>2018-02-23T15:33:16Z</time>
      </trkpt>
      <trkpt lat="43.52291" lon="6.2413">
        <ele>208.7</ele>
        <time>2018-02-23T15:33:25Z</time>
      </trkpt>
      <trkpt lat="43.52287" lon="6.24118">
        <ele>208.2</ele>
        <time>2018-02-23T15:33:35Z</time>
      </trkpt>
      <trkpt lat="43.5228" lon="6.24109">
        <ele>207.1</ele>
        <time>2018-02-23T15:33:43Z</time>
      </trkpt>
      <trkpt lat="43.52277" lon="6.24095">
        <ele>205.7</ele>
        <time>2018-02-23T15:33:52Z</time>
      </trkpt>
      <trkpt lat="43.52273" lon="6.24084">
        <ele>204.6</ele>
        <time>2018-02-23T15:34:00Z</time>
      </trkpt>
      <trkpt lat="43.52268" lon="6.24072">
        <ele>202.7</ele>
        <time>2018-02-23T15:34:11Z</time>
      </trkpt>
      <trkpt lat="43.52263" lon="6.24062">
        <ele>201.3</ele>
        <time>2018-02-23T15:34:19Z</time>
      </trkpt>
      <trkpt lat="43.52257" lon="6.24051">
        <ele>200.2</ele>
        <time>2018-02-23T15:34:26Z</time>
      </trkpt>
      <trkpt lat="43.52252" lon="6.24041">
        <ele>198.7</ele>
        <time>2018-02-23T15:34:36Z</time>
      </trkpt>
      <trkpt lat="43.52245" lon="6.24033">
        <ele>196.8</ele>
        <time>2018-02-23T15:34:46Z</time>
      </trkpt>
      <trkpt lat="43.52239" lon="6.24023">
        <ele>195.1</ele>
        <time>2018-02-23T15:34:56Z</time>
      </trkpt>
      <trkpt lat="43.52232" lon="6.24014">
        <ele>194.1</ele>
        <time>2018-02-23T15:35:05Z</time>
      </trkpt>
      <trkpt lat="43.52226" lon="6.24004">
        <ele>193.1</ele>
        <time>2018-02-23T15:35:13Z</time>
      </trkpt>
      <trkpt lat="43.52219" lon="6.23996">
        <ele>192</ele>
        <time>2018-02-23T15:35:21Z</time>
      </trkpt>
      <trkpt lat="43.52216" lon="6.23983">
        <ele>191</ele>
        <time>2018-02-23T15:35:30Z</time>
      </trkpt>
      <trkpt lat="43.52215" lon="6.23971">
        <ele>189.8</ele>
        <time>2018-02-23T15:35:40Z</time>
      </trkpt>
      <trkpt lat="43.5221" lon="6.2396">
        <ele>189.4</ele>
        <time>2018-02-23T15:35:51Z</time>
      </trkpt>
      <trkpt lat="43.52203" lon="6.23952">
        <ele>188.9</ele>
        <time>2018-02-23T15:36:07Z</time>
      </trkpt>
      <trkpt lat="43.52195" lon="6.23946">
        <ele>188.2</ele>
        <time>2018-02-23T15:36:27Z</time>
      </trkpt>
      <trkpt lat="43.52186" lon="6.23942">
        <ele>188.3</ele>
        <time>2018-02-23T15:36:37Z</time>
      </trkpt>
      <trkpt lat="43.52177" lon="6.23941">
        <ele>188.6</ele>
        <time>2018-02-23T15:36:46Z</time>
      </trkpt>
      <trkpt lat="43.52168" lon="6.2394">
        <ele>188.9</ele>
        <time>2018-02-23T15:36:59Z</time>
      </trkpt>
      <trkpt lat="43.52159" lon="6.23941">
        <ele>189.1</ele>
        <time>2018-02-23T15:37:15Z</time>
      </trkpt>
      <trkpt lat="43.5215" lon="6.23941">
        <ele>189.1</ele>
        <time>2018-02-23T15:37:26Z</time>
      </trkpt>
      <trkpt lat="43.5214" lon="6.23942">
        <ele>189.2</ele>
        <time>2018-02-23T15:37:36Z</time>
      </trkpt>
      <trkpt lat="43.5213" lon="6.23945">
        <ele>188.9</ele>
        <time>2018-02-23T15:37:44Z</time>
      </trkpt>
      <trkpt lat="43.52121" lon="6.23949">
        <ele>188.9</ele>
        <time>2018-02-23T15:37:54Z</time>
      </trkpt>
      <trkpt lat="43.52112" lon="6.23951">
        <ele>188.6</ele>
        <time>2018-02-23T15:38:01Z</time>
      </trkpt>
      <trkpt lat="43.52102" lon="6.23953">
        <ele>188.4</ele>
        <time>2018-02-23T15:38:09Z</time>
      </trkpt>
      <trkpt lat="43.52093" lon="6.23953">
        <ele>188.4</ele>
        <time>2018-02-23T15:38:19Z</time>
      </trkpt>
      <trkpt lat="43.52084" lon="6.23952">
        <ele>188.1</ele>
        <time>2018-02-23T15:38:28Z</time>
      </trkpt>
      <trkpt lat="43.52074" lon="6.23955">
        <ele>187.8</ele>
        <time>2018-02-23T15:38:40Z</time>
      </trkpt>
      <trkpt lat="43.52065" lon="6.23954">
        <ele>187.6</ele>
        <time>2018-02-23T15:38:48Z</time>
      </trkpt>
      <trkpt lat="43.52056" lon="6.23955">
        <ele>187.6</ele>
        <time>2018-02-23T15:38:54Z</time>
      </trkpt>
      <trkpt lat="43.52047" lon="6.23948">
        <ele>187.5</ele>
        <time>2018-02-23T15:39:07Z</time>
      </trkpt>
      <trkpt lat="43.52038" lon="6.23949">
        <ele>187.4</ele>
        <time>2018-02-23T15:39:18Z</time>
      </trkpt>
      <trkpt lat="43.52028" lon="6.2395">
        <ele>186.9</ele>
        <time>2018-02-23T15:39:28Z</time>
      </trkpt>
      <trkpt lat="43.52018" lon="6.2395">
        <ele>187</ele>
        <time>2018-02-23T15:39:38Z</time>
      </trkpt>
      <trkpt lat="43.52009" lon="6.2395">
        <ele>187</ele>
        <time>2018-02-23T15:39:47Z</time>
      </trkpt>
      <trkpt lat="43.52" lon="6.2395">
        <ele>187.1</ele>
        <time>2018-02-23T15:39:58Z</time>
      </trkpt>
      <trkpt lat="43.51991" lon="6.23953">
        <ele>186.7</ele>
        <time>2018-02-23T15:40:08Z</time>
      </trkpt>
      <trkpt lat="43.51982" lon="6.23957">
        <ele>186.4</ele>
        <time>2018-02-23T15:40:17Z</time>
      </trkpt>
      <trkpt lat="43.51973" lon="6.23963">
        <ele>185.6</ele>
        <time>2018-02-23T15:40:26Z</time>
      </trkpt>
      <trkpt lat="43.51965" lon="6.23969">
        <ele>185.2</ele>
        <time>2018-02-23T15:40:33Z</time>
      </trkpt>
      <trkpt lat="43.51957" lon="6.23976">
        <ele>185.2</ele>
        <time>2018-02-23T15:40:41Z</time>
      </trkpt>
      <trkpt lat="43.51948" lon="6.23981">
        <ele>185.1</ele>
        <time>2018-02-23T15:40:48Z</time>
      </trkpt>
      <trkpt lat="43.5194" lon="6.23986">
        <ele>185.1</ele>
        <time>2018-02-23T15:40:57Z</time>
      </trkpt>
      <trkpt lat="43.51931" lon="6.23991">
        <ele>185.2</ele>
        <time>2018-02-23T15:41:05Z</time>
      </trkpt>
      <trkpt lat="43.51922" lon="6.23994">
        <ele>184.5</ele>
        <time>2018-02-23T15:41:15Z</time>
      </trkpt>
      <trkpt lat="43.51912" lon="6.23994">
        <ele>184.6</ele>
        <time>2018-02-23T15:41:25Z</time>
      </trkpt>
      <trkpt lat="43.51902" lon="6.23994">
        <ele>184.7</ele>
        <time>2018-02-23T15:41:33Z</time>
      </trkpt>
      <trkpt lat="43.51893" lon="6.23995">
        <ele>184.7</ele>
        <time>2018-02-23T15:41:41Z</time>
      </trkpt>
      <trkpt lat="43.51884" lon="6.23997">
        <ele>184.2</ele>
        <time>2018-02-23T15:41:49Z</time>
      </trkpt>
      <trkpt lat="43.51874" lon="6.23998">
        <ele>183.7</ele>
        <time>2018-02-23T15:41:59Z</time>
      </trkpt>
      <trkpt lat="43.51865" lon="6.23998">
        <ele>183.4</ele>
        <time>2018-02-23T15:42:08Z</time>
      </trkpt>
      <trkpt lat="43.51855" lon="6.24">
        <ele>183.1</ele>
        <time>2018-02-23T15:42:18Z</time>
      </trkpt>
      <trkpt lat="43.51846" lon="6.24001">
        <ele>183</ele>
        <time>2018-02-23T15:42:27Z</time>
      </trkpt>
      <trkpt lat="43.51836" lon="6.24001">
        <ele>183.1</ele>
        <time>2018-02-23T15:42:35Z</time>
      </trkpt>
      <trkpt lat="43.51827" lon="6.24">
        <ele>183.1</ele>
        <time>2018-02-23T15:42:44Z</time>
      </trkpt>
      <trkpt lat="43.51818" lon="6.24001">
        <ele>183.2</ele>
        <time>2018-02-23T15:42:52Z</time>
      </trkpt>
      <trkpt lat="43.51809" lon="6.24004">
        <ele>183.2</ele>
        <time>2018-02-23T15:43:04Z</time>
      </trkpt>
      <trkpt lat="43.518" lon="6.24004">
        <ele>183.3</ele>
        <time>2018-02-23T15:43:35Z</time>
      </trkpt>
      <trkpt lat="43.51792" lon="6.23998">
        <ele>182.2</ele>
        <time>2018-02-23T15:44:25Z</time>
      </trkpt>
      <trkpt lat="43.51789" lon="6.23985">
        <ele>181.7</ele>
        <time>2018-02-23T15:44:40Z</time>
      </trkpt>
      <trkpt lat="43.51786" lon="6.23973">
        <ele>180.9</ele>
        <time>2018-02-23T15:44:49Z</time>
      </trkpt>
      <trkpt lat="43.51783" lon="6.2396">
        <ele>180.3</ele>
        <time>2018-02-23T15:44:58Z</time>
      </trkpt>
      <trkpt lat="43.51782" lon="6.23947">
        <ele>179.6</ele>
        <time>2018-02-23T15:45:06Z</time>
      </trkpt>
      <trkpt lat="43.5178" lon="6.23933">
        <ele>179</ele>
        <time>2018-02-23T15:45:15Z</time>
      </trkpt>
      <trkpt lat="43.51779" lon="6.23919">
        <ele>178.4</ele>
        <time>2018-02-23T15:45:24Z</time>
      </trkpt>
      <trkpt lat="43.51776" lon="6.23908">
        <ele>178</ele>
        <time>2018-02-23T15:45:34Z</time>
      </trkpt>
      <trkpt lat="43.51774" lon="6.23895">
        <ele>177.5</ele>
        <time>2018-02-23T15:45:42Z</time>
      </trkpt>
      <trkpt lat="43.51768" lon="6.23883">
        <ele>176.8</ele>
        <time>2018-02-23T15:45:54Z</time>
      </trkpt>
      <trkpt lat="43.51758" lon="6.23884">
        <ele>176.5</ele>
        <time>2018-02-23T15:46:06Z</time>
      </trkpt>
      <trkpt lat="43.5175" lon="6.23889">
        <ele>175.7</ele>
        <time>2018-02-23T15:46:17Z</time>
      </trkpt>
      <trkpt lat="43.51742" lon="6.23896">
        <ele>175.2</ele>
        <time>2018-02-23T15:46:31Z</time>
      </trkpt>
      <trkpt lat="43.51734" lon="6.23903">
        <ele>174.6</ele>
        <time>2018-02-23T15:46:41Z</time>
      </trkpt>
      <trkpt lat="43.51726" lon="6.23909">
        <ele>174.4</ele>
        <time>2018-02-23T15:46:47Z</time>
      </trkpt>
      <trkpt lat="43.51718" lon="6.23916">
        <ele>173.7</ele>
        <time>2018-02-23T15:46:56Z</time>
      </trkpt>
      <trkpt lat="43.51711" lon="6.23927">
        <ele>173.1</ele>
        <time>2018-02-23T15:47:07Z</time>
      </trkpt>
      <trkpt lat="43.51712" lon="6.23941">
        <ele>172.9</ele>
        <time>2018-02-23T15:47:15Z</time>
      </trkpt>
      <trkpt lat="43.5171" lon="6.23954">
        <ele>172.3</ele>
        <time>2018-02-23T15:47:23Z</time>
      </trkpt>
      <trkpt lat="43.51706" lon="6.23966">
        <ele>172</ele>
        <time>2018-02-23T15:47:30Z</time>
      </trkpt>
      <trkpt lat="43.51704" lon="6.23979">
        <ele>171</ele>
        <time>2018-02-23T15:47:39Z</time>
      </trkpt>
      <trkpt lat="43.51704" lon="6.23992">
        <ele>170.5</ele>
        <time>2018-02-23T15:47:46Z</time>
      </trkpt>
      <trkpt lat="43.51702" lon="6.24004">
        <ele>169.7</ele>
        <time>2018-02-23T15:47:56Z</time>
      </trkpt>
      <trkpt lat="43.51699" lon="6.24016">
        <ele>169</ele>
        <time>2018-02-23T15:48:05Z</time>
      </trkpt>
      <trkpt lat="43.51695" lon="6.24028">
        <ele>168.7</ele>
        <time>2018-02-23T15:48:14Z</time>
      </trkpt>
      <trkpt lat="43.51691" lon="6.2404">
        <ele>168.5</ele>
        <time>2018-02-23T15:48:23Z</time>
      </trkpt>
      <trkpt lat="43.51686" lon="6.24051">
        <ele>168.3</ele>
        <time>2018-02-23T15:48:30Z</time>
      </trkpt>
      <trkpt lat="43.51682" lon="6.24063">
        <ele>168.4</ele>
        <time>2018-02-23T15:48:38Z</time>
      </trkpt>
      <trkpt lat="43.51683" lon="6.24076">
        <ele>168</ele>
        <time>2018-02-23T15:48:51Z</time>
      </trkpt>
      <trkpt lat="43.51691" lon="6.24085">
        <ele>167</ele>
        <time>2018-02-23T15:49:03Z</time>
      </trkpt>
      <trkpt lat="43.517" lon="6.24091">
        <ele>166.1</ele>
        <time>2018-02-23T15:49:13Z</time>
      </trkpt>
      <trkpt lat="43.51707" lon="6.241">
        <ele>165.1</ele>
        <time>2018-02-23T15:49:24Z</time>
      </trkpt>
      <trkpt lat="43.51711" lon="6.24111">
        <ele>164.6</ele>
        <time>2018-02-23T15:49:33Z</time>
      </trkpt>
      <trkpt lat="43.51709" lon="6.24124">
        <ele>164.2</ele>
        <time>2018-02-23T15:49:40Z</time>
      </trkpt>
      <trkpt lat="43.51703" lon="6.24132">
        <ele>163</ele>
        <time>2018-02-23T15:49:50Z</time>
      </trkpt>
      <trkpt lat="43.51693" lon="6.24132">
        <ele>161.3</ele>
        <time>2018-02-23T15:50:01Z</time>
      </trkpt>
      <trkpt lat="43.51687" lon="6.24143">
        <ele>159.7</ele>
        <time>2018-02-23T15:50:18Z</time>
      </trkpt>
      <trkpt lat="43.5168" lon="6.2415">
        <ele>159.3</ele>
        <time>2018-02-23T15:50:26Z</time>
      </trkpt>
      <trkpt lat="43.51673" lon="6.24158">
        <ele>158.6</ele>
        <time>2018-02-23T15:50:36Z</time>
      </trkpt>
      <trkpt lat="43.51671" lon="6.24171">
        <ele>157.8</ele>
        <time>2018-02-23T15:51:12Z</time>
      </trkpt>
      <trkpt lat="43.51678" lon="6.24179">
        <ele>158.6</ele>
        <time>2018-02-23T15:51:33Z</time>
      </trkpt>
      <trkpt lat="43.51681" lon="6.24192">
        <ele>158.9</ele>
        <time>2018-02-23T15:51:45Z</time>
      </trkpt>
      <trkpt lat="43.51684" lon="6.24205">
        <ele>158.5</ele>
        <time>2018-02-23T15:51:53Z</time>
      </trkpt>
      <trkpt lat="43.51686" lon="6.24217">
        <ele>158.5</ele>
        <time>2018-02-23T15:52:02Z</time>
      </trkpt>
      <trkpt lat="43.51688" lon="6.24231">
        <ele>158.5</ele>
        <time>2018-02-23T15:52:13Z</time>
      </trkpt>
      <trkpt lat="43.5169" lon="6.24243">
        <ele>158.6</ele>
        <time>2018-02-23T15:52:22Z</time>
      </trkpt>
      <trkpt lat="43.5169" lon="6.24256">
        <ele>159.1</ele>
        <time>2018-02-23T15:52:31Z</time>
      </trkpt>
      <trkpt lat="43.5169" lon="6.24269">
        <ele>159.4</ele>
        <time>2018-02-23T15:52:40Z</time>
      </trkpt>
      <trkpt lat="43.51687" lon="6.24282">
        <ele>159.5</ele>
        <time>2018-02-23T15:52:50Z</time>
      </trkpt>
      <trkpt lat="43.51683" lon="6.24293">
        <ele>159.6</ele>
        <time>2018-02-23T15:52:59Z</time>
      </trkpt>
      <trkpt lat="43.51681" lon="6.24305">
        <ele>159.7</ele>
        <time>2018-02-23T15:53:09Z</time>
      </trkpt>
      <trkpt lat="43.51679" lon="6.24318">
        <ele>159.9</ele>
        <time>2018-02-23T15:53:19Z</time>
      </trkpt>
      <trkpt lat="43.51676" lon="6.2433">
        <ele>159.9</ele>
        <time>2018-02-23T15:53:28Z</time>
      </trkpt>
      <trkpt lat="43.51674" lon="6.24343">
        <ele>159.8</ele>
        <time>2018-02-23T15:53:37Z</time>
      </trkpt>
      <trkpt lat="43.51673" lon="6.24356">
        <ele>160</ele>
        <time>2018-02-23T15:53:47Z</time>
      </trkpt>
      <trkpt lat="43.51671" lon="6.24369">
        <ele>159.2</ele>
        <time>2018-02-23T15:53:58Z</time>
      </trkpt>
      <trkpt lat="43.51667" lon="6.2438">
        <ele>158.9</ele>
        <time>2018-02-23T15:54:09Z</time>
      </trkpt>
      <trkpt lat="43.51663" lon="6.24393">
        <ele>158.3</ele>
        <time>2018-02-23T15:54:19Z</time>
      </trkpt>
      <trkpt lat="43.51658" lon="6.24402">
        <ele>157.1</ele>
        <time>2018-02-23T15:54:30Z</time>
      </trkpt>
      <trkpt lat="43.5165" lon="6.2441">
        <ele>155.4</ele>
        <time>2018-02-23T15:54:40Z</time>
      </trkpt>
      <trkpt lat="43.51643" lon="6.24419">
        <ele>154.6</ele>
        <time>2018-02-23T15:54:51Z</time>
      </trkpt>
      <trkpt lat="43.51634" lon="6.24426">
        <ele>154</ele>
        <time>2018-02-23T15:55:01Z</time>
      </trkpt>
      <trkpt lat="43.51625" lon="6.24432">
        <ele>153.6</ele>
        <time>2018-02-23T15:55:10Z</time>
      </trkpt>
      <trkpt lat="43.51619" lon="6.24442">
        <ele>154.7</ele>
        <time>2018-02-23T15:55:33Z</time>
      </trkpt>
      <trkpt lat="43.5161" lon="6.24441">
        <ele>155.7</ele>
        <time>2018-02-23T15:55:57Z</time>
      </trkpt>
      <trkpt lat="43.51601" lon="6.24441">
        <ele>155.9</ele>
        <time>2018-02-23T15:56:22Z</time>
      </trkpt>
      <trkpt lat="43.51591" lon="6.24438">
        <ele>155.8</ele>
        <time>2018-02-23T15:56:41Z</time>
      </trkpt>
      <trkpt lat="43.51582" lon="6.24439">
        <ele>155.8</ele>
        <time>2018-02-23T15:56:59Z</time>
      </trkpt>
      <trkpt lat="43.51572" lon="6.24441">
        <ele>156.3</ele>
        <time>2018-02-23T15:57:25Z</time>
      </trkpt>
      <trkpt lat="43.51569" lon="6.24428">
        <ele>156.2</ele>
        <time>2018-02-23T15:57:50Z</time>
      </trkpt>
      <trkpt lat="43.51561" lon="6.24421">
        <ele>156.3</ele>
        <time>2018-02-23T15:57:58Z</time>
      </trkpt>
      <trkpt lat="43.51557" lon="6.2441">
        <ele>156.3</ele>
        <time>2018-02-23T15:58:07Z</time>
      </trkpt>
      <trkpt lat="43.51556" lon="6.24397">
        <ele>156.6</ele>
        <time>2018-02-23T15:58:26Z</time>
      </trkpt>
      <trkpt lat="43.51565" lon="6.24393">
        <ele>157.2</ele>
        <time>2018-02-23T15:58:36Z</time>
      </trkpt>
      <trkpt lat="43.51574" lon="6.24391">
        <ele>158.1</ele>
        <time>2018-02-23T15:58:44Z</time>
      </trkpt>
      <trkpt lat="43.5157" lon="6.24377">
        <ele>158.8</ele>
        <time>2018-02-23T15:58:51Z</time>
      </trkpt>
      <trkpt lat="43.51566" lon="6.24365">
        <ele>160.1</ele>
        <time>2018-02-23T15:59:00Z</time>
      </trkpt>
      <trkpt lat="43.51569" lon="6.24353">
        <ele>161.7</ele>
        <time>2018-02-23T15:59:14Z</time>
      </trkpt>
      <trkpt lat="43.51571" lon="6.2434">
        <ele>163</ele>
        <time>2018-02-23T15:59:25Z</time>
      </trkpt>
      <trkpt lat="43.51571" lon="6.24328">
        <ele>164</ele>
        <time>2018-02-23T15:59:36Z</time>
      </trkpt>
      <trkpt lat="43.51577" lon="6.24317">
        <ele>165.7</ele>
        <time>2018-02-23T16:00:09Z</time>
      </trkpt>
      <trkpt lat="43.51579" lon="6.24305">
        <ele>166.5</ele>
        <time>2018-02-23T16:00:33Z</time>
      </trkpt>
      <trkpt lat="43.51585" lon="6.24295">
        <ele>165.9</ele>
        <time>2018-02-23T16:00:48Z</time>
      </trkpt>
      <trkpt lat="43.5159" lon="6.24284">
        <ele>165.2</ele>
        <time>2018-02-23T16:01:00Z</time>
      </trkpt>
      <trkpt lat="43.51589" lon="6.24271">
        <ele>163.9</ele>
        <time>2018-02-23T16:01:14Z</time>
      </trkpt>
      <trkpt lat="43.51591" lon="6.24259">
        <ele>162.7</ele>
        <time>2018-02-23T16:01:47Z</time>
      </trkpt>
      <trkpt lat="43.51596" lon="6.24248">
        <ele>161.4</ele>
        <time>2018-02-23T16:03:20Z</time>
      </trkpt>
      <trkpt lat="43.51601" lon="6.24236">
        <ele>160.3</ele>
        <time>2018-02-23T16:03:56Z</time>
      </trkpt>
      <trkpt lat="43.51592" lon="6.24239">
        <ele>160.3</ele>
        <time>2018-02-23T16:04:12Z</time>
      </trkpt>
      <trkpt lat="43.51583" lon="6.24237">
        <ele>160.8</ele>
        <time>2018-02-23T16:04:47Z</time>
      </trkpt>
      <trkpt lat="43.51575" lon="6.24231">
        <ele>160.8</ele>
        <time>2018-02-23T16:06:01Z</time>
      </trkpt>
      <trkpt lat="43.51566" lon="6.2423">
        <ele>160.8</ele>
        <time>2018-02-23T16:06:18Z</time>
      </trkpt>
      <trkpt lat="43.51559" lon="6.24221">
        <ele>161.1</ele>
        <time>2018-02-23T16:06:30Z</time>
      </trkpt>
      <trkpt lat="43.5155" lon="6.24215">
        <ele>161.5</ele>
        <time>2018-02-23T16:06:41Z</time>
      </trkpt>
      <trkpt lat="43.51541" lon="6.24216">
        <ele>161.8</ele>
        <time>2018-02-23T16:06:50Z</time>
      </trkpt>
      <trkpt lat="43.51533" lon="6.2421">
        <ele>161.9</ele>
        <time>2018-02-23T16:06:57Z</time>
      </trkpt>
      <trkpt lat="43.51526" lon="6.24201">
        <ele>162</ele>
        <time>2018-02-23T16:07:05Z</time>
      </trkpt>
      <trkpt lat="43.51519" lon="6.24192">
        <ele>161.7</ele>
        <time>2018-02-23T16:07:21Z</time>
      </trkpt>
      <trkpt lat="43.51519" lon="6.2418">
        <ele>161.2</ele>
        <time>2018-02-23T16:07:40Z</time>
      </trkpt>
      <trkpt lat="43.51515" lon="6.24168">
        <ele>161.2</ele>
        <time>2018-02-23T16:07:53Z</time>
      </trkpt>
      <trkpt lat="43.51508" lon="6.2416">
        <ele>160.8</ele>
        <time>2018-02-23T16:08:10Z</time>
      </trkpt>
      <trkpt lat="43.51503" lon="6.24157">
        <ele>160.7</ele>
        <time>2018-02-23T16:08:21Z</time>
      </trkpt>
    </trkseg>
  </trk>
</gpx>